<?xml version="1.0" encoding="UTF-8" standalone="no" ?>
<gpx xmlns="http://www.topografix.com/GPX/1/1" xmlns:xsi="http://www.w3.org/2001/XMLSchema-instance" xsi:schemaLocation="http://www.topografix.com/GPX/1/1 http://www.topografix.com/GPX/1/1/gpx.xsd" version="1.1" creator="VisuGPX - https://www.visugpx.com">
  <metadata>
    <name>Montagnarde 2016</name>
    <desc><![CDATA[Rando en solo, bien grasse !]]></desc>
  </metadata>
  <trk>
    <name><![CDATA[MONTAGNARDE 2016]]></name>
    <trkseg>
      <trkpt lat="50.1176" lon="3.54009">
        <ele>97.71</ele>
        <time>2016-04-10T06:49:26Z</time>
      </trkpt>
      <trkpt lat="50.1176" lon="3.54009">
        <ele>97.71</ele>
        <time>2016-04-10T06:49:27Z</time>
      </trkpt>
      <trkpt lat="50.1176" lon="3.54006">
        <ele>97.71</ele>
        <time>2016-04-10T06:49:48Z</time>
      </trkpt>
      <trkpt lat="50.1176" lon="3.54006">
        <ele>97.71</ele>
        <time>2016-04-10T06:49:50Z</time>
      </trkpt>
      <trkpt lat="50.11748" lon="3.54012">
        <ele>97.71</ele>
        <time>2016-04-10T06:50:00Z</time>
      </trkpt>
      <trkpt lat="50.11742" lon="3.54013">
        <ele>97.71</ele>
        <time>2016-04-10T06:50:03Z</time>
      </trkpt>
      <trkpt lat="50.11736" lon="3.54018">
        <ele>97.71</ele>
        <time>2016-04-10T06:50:06Z</time>
      </trkpt>
      <trkpt lat="50.11735" lon="3.54026">
        <ele>97.71</ele>
        <time>2016-04-10T06:50:09Z</time>
      </trkpt>
      <trkpt lat="50.11731" lon="3.54034">
        <ele>97.71</ele>
        <time>2016-04-10T06:50:12Z</time>
      </trkpt>
      <trkpt lat="50.11731" lon="3.54037">
        <ele>97.71</ele>
        <time>2016-04-10T06:50:13Z</time>
      </trkpt>
      <trkpt lat="50.11732" lon="3.5404">
        <ele>97.71</ele>
        <time>2016-04-10T06:50:14Z</time>
      </trkpt>
      <trkpt lat="50.11753" lon="3.54111">
        <ele>94.83</ele>
        <time>2016-04-10T06:50:26Z</time>
      </trkpt>
      <trkpt lat="50.11761" lon="3.54135">
        <ele>93.87</ele>
        <time>2016-04-10T06:50:32Z</time>
      </trkpt>
      <trkpt lat="50.11763" lon="3.54136">
        <ele>93.87</ele>
        <time>2016-04-10T06:50:33Z</time>
      </trkpt>
      <trkpt lat="50.11765" lon="3.54136">
        <ele>93.39</ele>
        <time>2016-04-10T06:50:34Z</time>
      </trkpt>
      <trkpt lat="50.11768" lon="3.54135">
        <ele>93.39</ele>
        <time>2016-04-10T06:50:35Z</time>
      </trkpt>
      <trkpt lat="50.11771" lon="3.54134">
        <ele>93.39</ele>
        <time>2016-04-10T06:50:36Z</time>
      </trkpt>
      <trkpt lat="50.11838" lon="3.54112">
        <ele>90.98</ele>
        <time>2016-04-10T06:50:51Z</time>
      </trkpt>
      <trkpt lat="50.11916" lon="3.54089">
        <ele>88.58</ele>
        <time>2016-04-10T06:51:07Z</time>
      </trkpt>
      <trkpt lat="50.1192" lon="3.54089">
        <ele>88.58</ele>
        <time>2016-04-10T06:51:08Z</time>
      </trkpt>
      <trkpt lat="50.11925" lon="3.54091">
        <ele>88.58</ele>
        <time>2016-04-10T06:51:09Z</time>
      </trkpt>
      <trkpt lat="50.1193" lon="3.54094">
        <ele>88.58</ele>
        <time>2016-04-10T06:51:10Z</time>
      </trkpt>
      <trkpt lat="50.11934" lon="3.54098">
        <ele>88.1</ele>
        <time>2016-04-10T06:51:11Z</time>
      </trkpt>
      <trkpt lat="50.11938" lon="3.54102">
        <ele>88.1</ele>
        <time>2016-04-10T06:51:12Z</time>
      </trkpt>
      <trkpt lat="50.1194" lon="3.54106">
        <ele>88.1</ele>
        <time>2016-04-10T06:51:13Z</time>
      </trkpt>
      <trkpt lat="50.11944" lon="3.54112">
        <ele>88.1</ele>
        <time>2016-04-10T06:51:14Z</time>
      </trkpt>
      <trkpt lat="50.11995" lon="3.54197">
        <ele>88.1</ele>
        <time>2016-04-10T06:51:30Z</time>
      </trkpt>
      <trkpt lat="50.12044" lon="3.54232">
        <ele>88.1</ele>
        <time>2016-04-10T06:51:43Z</time>
      </trkpt>
      <trkpt lat="50.12048" lon="3.54238">
        <ele>88.1</ele>
        <time>2016-04-10T06:51:44Z</time>
      </trkpt>
      <trkpt lat="50.12049" lon="3.54244">
        <ele>88.1</ele>
        <time>2016-04-10T06:51:45Z</time>
      </trkpt>
      <trkpt lat="50.1205" lon="3.5425">
        <ele>88.1</ele>
        <time>2016-04-10T06:51:46Z</time>
      </trkpt>
      <trkpt lat="50.1205" lon="3.54258">
        <ele>88.1</ele>
        <time>2016-04-10T06:51:47Z</time>
      </trkpt>
      <trkpt lat="50.12051" lon="3.54264">
        <ele>88.1</ele>
        <time>2016-04-10T06:51:48Z</time>
      </trkpt>
      <trkpt lat="50.1205" lon="3.54306">
        <ele>88.1</ele>
        <time>2016-04-10T06:51:54Z</time>
      </trkpt>
      <trkpt lat="50.12048" lon="3.54313">
        <ele>88.1</ele>
        <time>2016-04-10T06:51:55Z</time>
      </trkpt>
      <trkpt lat="50.12047" lon="3.54318">
        <ele>88.1</ele>
        <time>2016-04-10T06:51:56Z</time>
      </trkpt>
      <trkpt lat="50.12043" lon="3.54332">
        <ele>88.1</ele>
        <time>2016-04-10T06:51:58Z</time>
      </trkpt>
      <trkpt lat="50.12041" lon="3.54336">
        <ele>88.1</ele>
        <time>2016-04-10T06:51:59Z</time>
      </trkpt>
      <trkpt lat="50.12038" lon="3.54341">
        <ele>88.1</ele>
        <time>2016-04-10T06:52:00Z</time>
      </trkpt>
      <trkpt lat="50.12035" lon="3.54346">
        <ele>88.1</ele>
        <time>2016-04-10T06:52:01Z</time>
      </trkpt>
      <trkpt lat="50.12031" lon="3.5435">
        <ele>88.1</ele>
        <time>2016-04-10T06:52:02Z</time>
      </trkpt>
      <trkpt lat="50.12026" lon="3.54355">
        <ele>88.1</ele>
        <time>2016-04-10T06:52:03Z</time>
      </trkpt>
      <trkpt lat="50.11992" lon="3.54378">
        <ele>88.1</ele>
        <time>2016-04-10T06:52:12Z</time>
      </trkpt>
      <trkpt lat="50.1194" lon="3.5442">
        <ele>90.02</ele>
        <time>2016-04-10T06:52:28Z</time>
      </trkpt>
      <trkpt lat="50.11935" lon="3.54498">
        <ele>90.98</ele>
        <time>2016-04-10T06:52:42Z</time>
      </trkpt>
      <trkpt lat="50.11929" lon="3.54599">
        <ele>90.5</ele>
        <time>2016-04-10T06:52:57Z</time>
      </trkpt>
      <trkpt lat="50.1193" lon="3.5462">
        <ele>90.5</ele>
        <time>2016-04-10T06:53:00Z</time>
      </trkpt>
      <trkpt lat="50.11931" lon="3.54626">
        <ele>90.5</ele>
        <time>2016-04-10T06:53:01Z</time>
      </trkpt>
      <trkpt lat="50.11933" lon="3.54632">
        <ele>90.5</ele>
        <time>2016-04-10T06:53:02Z</time>
      </trkpt>
      <trkpt lat="50.11977" lon="3.54722">
        <ele>90.98</ele>
        <time>2016-04-10T06:53:19Z</time>
      </trkpt>
      <trkpt lat="50.11998" lon="3.54749">
        <ele>91.46</ele>
        <time>2016-04-10T06:53:26Z</time>
      </trkpt>
      <trkpt lat="50.12023" lon="3.54787">
        <ele>92.9</ele>
        <time>2016-04-10T06:53:34Z</time>
      </trkpt>
      <trkpt lat="50.12037" lon="3.54825">
        <ele>93.87</ele>
        <time>2016-04-10T06:53:40Z</time>
      </trkpt>
      <trkpt lat="50.12069" lon="3.54967">
        <ele>95.31</ele>
        <time>2016-04-10T06:54:00Z</time>
      </trkpt>
      <trkpt lat="50.12101" lon="3.55109">
        <ele>96.75</ele>
        <time>2016-04-10T06:54:21Z</time>
      </trkpt>
      <trkpt lat="50.12135" lon="3.55262">
        <ele>96.75</ele>
        <time>2016-04-10T06:54:40Z</time>
      </trkpt>
      <trkpt lat="50.12141" lon="3.55317">
        <ele>95.31</ele>
        <time>2016-04-10T06:54:46Z</time>
      </trkpt>
      <trkpt lat="50.12141" lon="3.55405">
        <ele>94.83</ele>
        <time>2016-04-10T06:54:56Z</time>
      </trkpt>
      <trkpt lat="50.1214" lon="3.55413">
        <ele>94.83</ele>
        <time>2016-04-10T06:54:57Z</time>
      </trkpt>
      <trkpt lat="50.12137" lon="3.5542">
        <ele>94.35</ele>
        <time>2016-04-10T06:54:58Z</time>
      </trkpt>
      <trkpt lat="50.12131" lon="3.55426">
        <ele>94.35</ele>
        <time>2016-04-10T06:54:59Z</time>
      </trkpt>
      <trkpt lat="50.12126" lon="3.55429">
        <ele>94.35</ele>
        <time>2016-04-10T06:55:00Z</time>
      </trkpt>
      <trkpt lat="50.12122" lon="3.55431">
        <ele>93.87</ele>
        <time>2016-04-10T06:55:01Z</time>
      </trkpt>
      <trkpt lat="50.12116" lon="3.55433">
        <ele>93.87</ele>
        <time>2016-04-10T06:55:02Z</time>
      </trkpt>
      <trkpt lat="50.12034" lon="3.55437">
        <ele>92.9</ele>
        <time>2016-04-10T06:55:16Z</time>
      </trkpt>
      <trkpt lat="50.12013" lon="3.55432">
        <ele>93.87</ele>
        <time>2016-04-10T06:55:20Z</time>
      </trkpt>
      <trkpt lat="50.11939" lon="3.55412">
        <ele>96.75</ele>
        <time>2016-04-10T06:55:36Z</time>
      </trkpt>
      <trkpt lat="50.11874" lon="3.55396">
        <ele>99.63</ele>
        <time>2016-04-10T06:55:50Z</time>
      </trkpt>
      <trkpt lat="50.11816" lon="3.55379">
        <ele>103</ele>
        <time>2016-04-10T06:56:04Z</time>
      </trkpt>
      <trkpt lat="50.11759" lon="3.55362">
        <ele>106.36</ele>
        <time>2016-04-10T06:56:19Z</time>
      </trkpt>
      <trkpt lat="50.11703" lon="3.55341">
        <ele>109.73</ele>
        <time>2016-04-10T06:56:33Z</time>
      </trkpt>
      <trkpt lat="50.11643" lon="3.55307">
        <ele>112.61</ele>
        <time>2016-04-10T06:56:50Z</time>
      </trkpt>
      <trkpt lat="50.11572" lon="3.55264">
        <ele>113.09</ele>
        <time>2016-04-10T06:57:11Z</time>
      </trkpt>
      <trkpt lat="50.11492" lon="3.55211">
        <ele>112.61</ele>
        <time>2016-04-10T06:57:32Z</time>
      </trkpt>
      <trkpt lat="50.11416" lon="3.55151">
        <ele>111.17</ele>
        <time>2016-04-10T06:57:51Z</time>
      </trkpt>
      <trkpt lat="50.11408" lon="3.55148">
        <ele>111.17</ele>
        <time>2016-04-10T06:57:53Z</time>
      </trkpt>
      <trkpt lat="50.11404" lon="3.55149">
        <ele>111.17</ele>
        <time>2016-04-10T06:57:54Z</time>
      </trkpt>
      <trkpt lat="50.11401" lon="3.55152">
        <ele>111.17</ele>
        <time>2016-04-10T06:57:55Z</time>
      </trkpt>
      <trkpt lat="50.11398" lon="3.55156">
        <ele>111.17</ele>
        <time>2016-04-10T06:57:56Z</time>
      </trkpt>
      <trkpt lat="50.11394" lon="3.5516">
        <ele>111.17</ele>
        <time>2016-04-10T06:57:57Z</time>
      </trkpt>
      <trkpt lat="50.11391" lon="3.55163">
        <ele>111.17</ele>
        <time>2016-04-10T06:57:58Z</time>
      </trkpt>
      <trkpt lat="50.11387" lon="3.55166">
        <ele>111.17</ele>
        <time>2016-04-10T06:57:59Z</time>
      </trkpt>
      <trkpt lat="50.11369" lon="3.5518">
        <ele>111.17</ele>
        <time>2016-04-10T06:58:04Z</time>
      </trkpt>
      <trkpt lat="50.11361" lon="3.55185">
        <ele>111.17</ele>
        <time>2016-04-10T06:58:06Z</time>
      </trkpt>
      <trkpt lat="50.11292" lon="3.55226">
        <ele>114.53</ele>
        <time>2016-04-10T06:58:23Z</time>
      </trkpt>
      <trkpt lat="50.11234" lon="3.55266">
        <ele>117.9</ele>
        <time>2016-04-10T06:58:38Z</time>
      </trkpt>
      <trkpt lat="50.112" lon="3.55337">
        <ele>121.26</ele>
        <time>2016-04-10T06:58:53Z</time>
      </trkpt>
      <trkpt lat="50.11179" lon="3.55402">
        <ele>124.63</ele>
        <time>2016-04-10T06:59:07Z</time>
      </trkpt>
      <trkpt lat="50.11163" lon="3.55452">
        <ele>126.07</ele>
        <time>2016-04-10T06:59:18Z</time>
      </trkpt>
      <trkpt lat="50.11161" lon="3.55458">
        <ele>127.03</ele>
        <time>2016-04-10T06:59:19Z</time>
      </trkpt>
      <trkpt lat="50.11133" lon="3.55543">
        <ele>130.4</ele>
        <time>2016-04-10T06:59:35Z</time>
      </trkpt>
      <trkpt lat="50.11104" lon="3.55635">
        <ele>132.8</ele>
        <time>2016-04-10T06:59:53Z</time>
      </trkpt>
      <trkpt lat="50.11078" lon="3.55713">
        <ele>134.72</ele>
        <time>2016-04-10T07:00:09Z</time>
      </trkpt>
      <trkpt lat="50.11049" lon="3.55788">
        <ele>136.64</ele>
        <time>2016-04-10T07:00:28Z</time>
      </trkpt>
      <trkpt lat="50.11026" lon="3.55845">
        <ele>139.05</ele>
        <time>2016-04-10T07:00:42Z</time>
      </trkpt>
      <trkpt lat="50.11002" lon="3.55889">
        <ele>140.49</ele>
        <time>2016-04-10T07:00:55Z</time>
      </trkpt>
      <trkpt lat="50.10999" lon="3.55889">
        <ele>140.49</ele>
        <time>2016-04-10T07:00:56Z</time>
      </trkpt>
      <trkpt lat="50.10988" lon="3.55873">
        <ele>140.97</ele>
        <time>2016-04-10T07:01:02Z</time>
      </trkpt>
      <trkpt lat="50.1095" lon="3.55801">
        <ele>141.45</ele>
        <time>2016-04-10T07:01:21Z</time>
      </trkpt>
      <trkpt lat="50.10922" lon="3.55745">
        <ele>141.93</ele>
        <time>2016-04-10T07:01:35Z</time>
      </trkpt>
      <trkpt lat="50.10885" lon="3.5567">
        <ele>140.49</ele>
        <time>2016-04-10T07:01:50Z</time>
      </trkpt>
      <trkpt lat="50.10835" lon="3.55585">
        <ele>140.01</ele>
        <time>2016-04-10T07:02:08Z</time>
      </trkpt>
      <trkpt lat="50.10774" lon="3.55503">
        <ele>136.64</ele>
        <time>2016-04-10T07:02:24Z</time>
      </trkpt>
      <trkpt lat="50.10715" lon="3.55423">
        <ele>133.76</ele>
        <time>2016-04-10T07:02:36Z</time>
      </trkpt>
      <trkpt lat="50.10653" lon="3.55309">
        <ele>130.88</ele>
        <time>2016-04-10T07:02:51Z</time>
      </trkpt>
      <trkpt lat="50.1058" lon="3.55242">
        <ele>127.99</ele>
        <time>2016-04-10T07:03:04Z</time>
      </trkpt>
      <trkpt lat="50.10564" lon="3.55233">
        <ele>128.47</ele>
        <time>2016-04-10T07:03:07Z</time>
      </trkpt>
      <trkpt lat="50.10556" lon="3.55227">
        <ele>128.47</ele>
        <time>2016-04-10T07:03:09Z</time>
      </trkpt>
      <trkpt lat="50.10551" lon="3.55226">
        <ele>128.47</ele>
        <time>2016-04-10T07:03:10Z</time>
      </trkpt>
      <trkpt lat="50.10473" lon="3.55206">
        <ele>125.59</ele>
        <time>2016-04-10T07:03:26Z</time>
      </trkpt>
      <trkpt lat="50.10425" lon="3.55196">
        <ele>122.22</ele>
        <time>2016-04-10T07:03:35Z</time>
      </trkpt>
      <trkpt lat="50.10369" lon="3.55184">
        <ele>118.86</ele>
        <time>2016-04-10T07:03:45Z</time>
      </trkpt>
      <trkpt lat="50.10332" lon="3.55176">
        <ele>116.94</ele>
        <time>2016-04-10T07:03:52Z</time>
      </trkpt>
      <trkpt lat="50.10329" lon="3.55172">
        <ele>116.94</ele>
        <time>2016-04-10T07:03:53Z</time>
      </trkpt>
      <trkpt lat="50.10327" lon="3.55167">
        <ele>116.46</ele>
        <time>2016-04-10T07:03:54Z</time>
      </trkpt>
      <trkpt lat="50.10327" lon="3.5516">
        <ele>116.46</ele>
        <time>2016-04-10T07:03:55Z</time>
      </trkpt>
      <trkpt lat="50.10327" lon="3.55154">
        <ele>116.46</ele>
        <time>2016-04-10T07:03:56Z</time>
      </trkpt>
      <trkpt lat="50.10328" lon="3.55149">
        <ele>116.46</ele>
        <time>2016-04-10T07:03:57Z</time>
      </trkpt>
      <trkpt lat="50.10327" lon="3.55144">
        <ele>115.98</ele>
        <time>2016-04-10T07:03:58Z</time>
      </trkpt>
      <trkpt lat="50.10327" lon="3.55139">
        <ele>115.98</ele>
        <time>2016-04-10T07:03:59Z</time>
      </trkpt>
      <trkpt lat="50.10325" lon="3.55135">
        <ele>115.98</ele>
        <time>2016-04-10T07:04:00Z</time>
      </trkpt>
      <trkpt lat="50.10324" lon="3.55131">
        <ele>115.5</ele>
        <time>2016-04-10T07:04:01Z</time>
      </trkpt>
      <trkpt lat="50.1032" lon="3.55121">
        <ele>115.5</ele>
        <time>2016-04-10T07:04:11Z</time>
      </trkpt>
      <trkpt lat="50.10318" lon="3.55118">
        <ele>115.01</ele>
        <time>2016-04-10T07:04:25Z</time>
      </trkpt>
      <trkpt lat="50.10315" lon="3.55117">
        <ele>115.01</ele>
        <time>2016-04-10T07:04:30Z</time>
      </trkpt>
      <trkpt lat="50.10296" lon="3.55109">
        <ele>116.46</ele>
        <time>2016-04-10T07:04:43Z</time>
      </trkpt>
      <trkpt lat="50.10285" lon="3.55102">
        <ele>115.01</ele>
        <time>2016-04-10T07:04:47Z</time>
      </trkpt>
      <trkpt lat="50.10278" lon="3.55099">
        <ele>114.53</ele>
        <time>2016-04-10T07:04:49Z</time>
      </trkpt>
      <trkpt lat="50.10238" lon="3.55073">
        <ele>114.53</ele>
        <time>2016-04-10T07:05:01Z</time>
      </trkpt>
      <trkpt lat="50.10219" lon="3.5506">
        <ele>117.42</ele>
        <time>2016-04-10T07:05:08Z</time>
      </trkpt>
      <trkpt lat="50.10186" lon="3.55049">
        <ele>120.3</ele>
        <time>2016-04-10T07:05:22Z</time>
      </trkpt>
      <trkpt lat="50.1018" lon="3.55049">
        <ele>120.3</ele>
        <time>2016-04-10T07:05:25Z</time>
      </trkpt>
      <trkpt lat="50.10178" lon="3.55075">
        <ele>119.82</ele>
        <time>2016-04-10T07:05:33Z</time>
      </trkpt>
      <trkpt lat="50.10179" lon="3.55156">
        <ele>119.82</ele>
        <time>2016-04-10T07:05:49Z</time>
      </trkpt>
      <trkpt lat="50.10179" lon="3.55224">
        <ele>119.82</ele>
        <time>2016-04-10T07:06:01Z</time>
      </trkpt>
      <trkpt lat="50.10172" lon="3.55299">
        <ele>120.78</ele>
        <time>2016-04-10T07:06:14Z</time>
      </trkpt>
      <trkpt lat="50.10156" lon="3.55375">
        <ele>122.71</ele>
        <time>2016-04-10T07:06:28Z</time>
      </trkpt>
      <trkpt lat="50.10147" lon="3.55411">
        <ele>123.67</ele>
        <time>2016-04-10T07:06:34Z</time>
      </trkpt>
      <trkpt lat="50.10139" lon="3.55432">
        <ele>124.15</ele>
        <time>2016-04-10T07:06:38Z</time>
      </trkpt>
      <trkpt lat="50.1011" lon="3.55489">
        <ele>125.59</ele>
        <time>2016-04-10T07:06:50Z</time>
      </trkpt>
      <trkpt lat="50.10075" lon="3.55542">
        <ele>127.03</ele>
        <time>2016-04-10T07:07:03Z</time>
      </trkpt>
      <trkpt lat="50.10032" lon="3.55596">
        <ele>129.43</ele>
        <time>2016-04-10T07:07:17Z</time>
      </trkpt>
      <trkpt lat="50.09993" lon="3.55636">
        <ele>130.88</ele>
        <time>2016-04-10T07:07:29Z</time>
      </trkpt>
      <trkpt lat="50.09956" lon="3.55681">
        <ele>131.84</ele>
        <time>2016-04-10T07:07:42Z</time>
      </trkpt>
      <trkpt lat="50.0992" lon="3.55737">
        <ele>133.28</ele>
        <time>2016-04-10T07:07:57Z</time>
      </trkpt>
      <trkpt lat="50.09887" lon="3.558">
        <ele>134.72</ele>
        <time>2016-04-10T07:08:13Z</time>
      </trkpt>
      <trkpt lat="50.09862" lon="3.55851">
        <ele>135.68</ele>
        <time>2016-04-10T07:08:27Z</time>
      </trkpt>
      <trkpt lat="50.09841" lon="3.55914">
        <ele>137.61</ele>
        <time>2016-04-10T07:08:42Z</time>
      </trkpt>
      <trkpt lat="50.09826" lon="3.55971">
        <ele>138.57</ele>
        <time>2016-04-10T07:08:56Z</time>
      </trkpt>
      <trkpt lat="50.09807" lon="3.56046">
        <ele>140.01</ele>
        <time>2016-04-10T07:09:14Z</time>
      </trkpt>
      <trkpt lat="50.09792" lon="3.56102">
        <ele>141.45</ele>
        <time>2016-04-10T07:09:26Z</time>
      </trkpt>
      <trkpt lat="50.09773" lon="3.56195">
        <ele>143.37</ele>
        <time>2016-04-10T07:09:44Z</time>
      </trkpt>
      <trkpt lat="50.09766" lon="3.5628">
        <ele>144.34</ele>
        <time>2016-04-10T07:10:01Z</time>
      </trkpt>
      <trkpt lat="50.09767" lon="3.56349">
        <ele>146.74</ele>
        <time>2016-04-10T07:10:17Z</time>
      </trkpt>
      <trkpt lat="50.09767" lon="3.5636">
        <ele>147.22</ele>
        <time>2016-04-10T07:10:20Z</time>
      </trkpt>
      <trkpt lat="50.09766" lon="3.56362">
        <ele>147.22</ele>
        <time>2016-04-10T07:10:21Z</time>
      </trkpt>
      <trkpt lat="50.09765" lon="3.56364">
        <ele>147.22</ele>
        <time>2016-04-10T07:10:22Z</time>
      </trkpt>
      <trkpt lat="50.09761" lon="3.56365">
        <ele>147.22</ele>
        <time>2016-04-10T07:10:24Z</time>
      </trkpt>
      <trkpt lat="50.09758" lon="3.56365">
        <ele>147.22</ele>
        <time>2016-04-10T07:10:25Z</time>
      </trkpt>
      <trkpt lat="50.09756" lon="3.56364">
        <ele>147.22</ele>
        <time>2016-04-10T07:10:26Z</time>
      </trkpt>
      <trkpt lat="50.09706" lon="3.56344">
        <ele>146.74</ele>
        <time>2016-04-10T07:10:43Z</time>
      </trkpt>
      <trkpt lat="50.09659" lon="3.56327">
        <ele>146.74</ele>
        <time>2016-04-10T07:11:00Z</time>
      </trkpt>
      <trkpt lat="50.09637" lon="3.56341">
        <ele>148.18</ele>
        <time>2016-04-10T07:11:11Z</time>
      </trkpt>
      <trkpt lat="50.09633" lon="3.56348">
        <ele>148.66</ele>
        <time>2016-04-10T07:11:13Z</time>
      </trkpt>
      <trkpt lat="50.09623" lon="3.56349">
        <ele>149.62</ele>
        <time>2016-04-10T07:11:17Z</time>
      </trkpt>
      <trkpt lat="50.09567" lon="3.56327">
        <ele>150.58</ele>
        <time>2016-04-10T07:11:34Z</time>
      </trkpt>
      <trkpt lat="50.09509" lon="3.56304">
        <ele>151.06</ele>
        <time>2016-04-10T07:11:50Z</time>
      </trkpt>
      <trkpt lat="50.09463" lon="3.56284">
        <ele>151.54</ele>
        <time>2016-04-10T07:12:05Z</time>
      </trkpt>
      <trkpt lat="50.09418" lon="3.56264">
        <ele>151.54</ele>
        <time>2016-04-10T07:12:21Z</time>
      </trkpt>
      <trkpt lat="50.09361" lon="3.56243">
        <ele>151.54</ele>
        <time>2016-04-10T07:12:38Z</time>
      </trkpt>
      <trkpt lat="50.09294" lon="3.56215">
        <ele>150.1</ele>
        <time>2016-04-10T07:12:57Z</time>
      </trkpt>
      <trkpt lat="50.09229" lon="3.56191">
        <ele>149.14</ele>
        <time>2016-04-10T07:13:16Z</time>
      </trkpt>
      <trkpt lat="50.09221" lon="3.56202">
        <ele>148.66</ele>
        <time>2016-04-10T07:13:19Z</time>
      </trkpt>
      <trkpt lat="50.09215" lon="3.56219">
        <ele>148.18</ele>
        <time>2016-04-10T07:13:22Z</time>
      </trkpt>
      <trkpt lat="50.09191" lon="3.56297">
        <ele>147.7</ele>
        <time>2016-04-10T07:13:38Z</time>
      </trkpt>
      <trkpt lat="50.09176" lon="3.56343">
        <ele>149.62</ele>
        <time>2016-04-10T07:13:50Z</time>
      </trkpt>
      <trkpt lat="50.09166" lon="3.56378">
        <ele>150.58</ele>
        <time>2016-04-10T07:14:01Z</time>
      </trkpt>
      <trkpt lat="50.09162" lon="3.56394">
        <ele>150.58</ele>
        <time>2016-04-10T07:14:06Z</time>
      </trkpt>
      <trkpt lat="50.09146" lon="3.56442">
        <ele>149.14</ele>
        <time>2016-04-10T07:14:18Z</time>
      </trkpt>
      <trkpt lat="50.0912" lon="3.56515">
        <ele>146.26</ele>
        <time>2016-04-10T07:14:33Z</time>
      </trkpt>
      <trkpt lat="50.09106" lon="3.56558">
        <ele>144.82</ele>
        <time>2016-04-10T07:14:43Z</time>
      </trkpt>
      <trkpt lat="50.09077" lon="3.56646">
        <ele>142.89</ele>
        <time>2016-04-10T07:15:03Z</time>
      </trkpt>
      <trkpt lat="50.09056" lon="3.56716">
        <ele>142.41</ele>
        <time>2016-04-10T07:15:20Z</time>
      </trkpt>
      <trkpt lat="50.09035" lon="3.56781">
        <ele>142.89</ele>
        <time>2016-04-10T07:15:38Z</time>
      </trkpt>
      <trkpt lat="50.09024" lon="3.56813">
        <ele>143.85</ele>
        <time>2016-04-10T07:15:47Z</time>
      </trkpt>
      <trkpt lat="50.09009" lon="3.5686">
        <ele>145.3</ele>
        <time>2016-04-10T07:16:03Z</time>
      </trkpt>
      <trkpt lat="50.08993" lon="3.56907">
        <ele>147.22</ele>
        <time>2016-04-10T07:16:20Z</time>
      </trkpt>
      <trkpt lat="50.0899" lon="3.56915">
        <ele>147.22</ele>
        <time>2016-04-10T07:16:23Z</time>
      </trkpt>
      <trkpt lat="50.08972" lon="3.56976">
        <ele>148.66</ele>
        <time>2016-04-10T07:16:43Z</time>
      </trkpt>
      <trkpt lat="50.0897" lon="3.56982">
        <ele>148.66</ele>
        <time>2016-04-10T07:16:45Z</time>
      </trkpt>
      <trkpt lat="50.08957" lon="3.57026">
        <ele>148.66</ele>
        <time>2016-04-10T07:17:01Z</time>
      </trkpt>
      <trkpt lat="50.08938" lon="3.57083">
        <ele>148.66</ele>
        <time>2016-04-10T07:17:17Z</time>
      </trkpt>
      <trkpt lat="50.08913" lon="3.57165">
        <ele>145.3</ele>
        <time>2016-04-10T07:17:35Z</time>
      </trkpt>
      <trkpt lat="50.08892" lon="3.57229">
        <ele>144.82</ele>
        <time>2016-04-10T07:17:49Z</time>
      </trkpt>
      <trkpt lat="50.08875" lon="3.57285">
        <ele>144.82</ele>
        <time>2016-04-10T07:18:04Z</time>
      </trkpt>
      <trkpt lat="50.08872" lon="3.57326">
        <ele>146.26</ele>
        <time>2016-04-10T07:18:15Z</time>
      </trkpt>
      <trkpt lat="50.08901" lon="3.57347">
        <ele>146.74</ele>
        <time>2016-04-10T07:18:26Z</time>
      </trkpt>
      <trkpt lat="50.08947" lon="3.57376">
        <ele>145.3</ele>
        <time>2016-04-10T07:18:43Z</time>
      </trkpt>
      <trkpt lat="50.08995" lon="3.57407">
        <ele>145.3</ele>
        <time>2016-04-10T07:18:58Z</time>
      </trkpt>
      <trkpt lat="50.09036" lon="3.57432">
        <ele>145.3</ele>
        <time>2016-04-10T07:19:12Z</time>
      </trkpt>
      <trkpt lat="50.09084" lon="3.57454">
        <ele>145.3</ele>
        <time>2016-04-10T07:19:27Z</time>
      </trkpt>
      <trkpt lat="50.09153" lon="3.57475">
        <ele>142.89</ele>
        <time>2016-04-10T07:19:45Z</time>
      </trkpt>
      <trkpt lat="50.09221" lon="3.5749">
        <ele>140.97</ele>
        <time>2016-04-10T07:20:00Z</time>
      </trkpt>
      <trkpt lat="50.09262" lon="3.57495">
        <ele>140.01</ele>
        <time>2016-04-10T07:20:09Z</time>
      </trkpt>
      <trkpt lat="50.09301" lon="3.57501">
        <ele>139.53</ele>
        <time>2016-04-10T07:20:17Z</time>
      </trkpt>
      <trkpt lat="50.09321" lon="3.57503">
        <ele>139.05</ele>
        <time>2016-04-10T07:20:21Z</time>
      </trkpt>
      <trkpt lat="50.09352" lon="3.57508">
        <ele>139.05</ele>
        <time>2016-04-10T07:20:27Z</time>
      </trkpt>
      <trkpt lat="50.09415" lon="3.57518">
        <ele>138.09</ele>
        <time>2016-04-10T07:20:42Z</time>
      </trkpt>
      <trkpt lat="50.09432" lon="3.57536">
        <ele>138.09</ele>
        <time>2016-04-10T07:20:47Z</time>
      </trkpt>
      <trkpt lat="50.09462" lon="3.576">
        <ele>138.09</ele>
        <time>2016-04-10T07:21:03Z</time>
      </trkpt>
      <trkpt lat="50.095" lon="3.57679">
        <ele>136.16</ele>
        <time>2016-04-10T07:21:19Z</time>
      </trkpt>
      <trkpt lat="50.09531" lon="3.57731">
        <ele>134.72</ele>
        <time>2016-04-10T07:21:33Z</time>
      </trkpt>
      <trkpt lat="50.09534" lon="3.57734">
        <ele>134.72</ele>
        <time>2016-04-10T07:21:38Z</time>
      </trkpt>
      <trkpt lat="50.09552" lon="3.57705">
        <ele>133.76</ele>
        <time>2016-04-10T07:21:47Z</time>
      </trkpt>
      <trkpt lat="50.09578" lon="3.57619">
        <ele>135.68</ele>
        <time>2016-04-10T07:22:03Z</time>
      </trkpt>
      <trkpt lat="50.09598" lon="3.57559">
        <ele>137.13</ele>
        <time>2016-04-10T07:22:18Z</time>
      </trkpt>
      <trkpt lat="50.09601" lon="3.57559">
        <ele>137.13</ele>
        <time>2016-04-10T07:22:19Z</time>
      </trkpt>
      <trkpt lat="50.09603" lon="3.57562">
        <ele>137.13</ele>
        <time>2016-04-10T07:22:20Z</time>
      </trkpt>
      <trkpt lat="50.09605" lon="3.57565">
        <ele>137.13</ele>
        <time>2016-04-10T07:22:21Z</time>
      </trkpt>
      <trkpt lat="50.09607" lon="3.5757">
        <ele>137.13</ele>
        <time>2016-04-10T07:22:22Z</time>
      </trkpt>
      <trkpt lat="50.09629" lon="3.57618">
        <ele>137.13</ele>
        <time>2016-04-10T07:22:32Z</time>
      </trkpt>
      <trkpt lat="50.09636" lon="3.57635">
        <ele>137.13</ele>
        <time>2016-04-10T07:22:35Z</time>
      </trkpt>
      <trkpt lat="50.09679" lon="3.57711">
        <ele>135.68</ele>
        <time>2016-04-10T07:22:50Z</time>
      </trkpt>
      <trkpt lat="50.09726" lon="3.57786">
        <ele>133.76</ele>
        <time>2016-04-10T07:23:06Z</time>
      </trkpt>
      <trkpt lat="50.09729" lon="3.57792">
        <ele>133.28</ele>
        <time>2016-04-10T07:23:07Z</time>
      </trkpt>
      <trkpt lat="50.09759" lon="3.57839">
        <ele>132.32</ele>
        <time>2016-04-10T07:23:17Z</time>
      </trkpt>
      <trkpt lat="50.09762" lon="3.5784">
        <ele>132.32</ele>
        <time>2016-04-10T07:23:18Z</time>
      </trkpt>
      <trkpt lat="50.09765" lon="3.5784">
        <ele>132.32</ele>
        <time>2016-04-10T07:23:19Z</time>
      </trkpt>
      <trkpt lat="50.09769" lon="3.57835">
        <ele>132.32</ele>
        <time>2016-04-10T07:23:21Z</time>
      </trkpt>
      <trkpt lat="50.0977" lon="3.57831">
        <ele>132.32</ele>
        <time>2016-04-10T07:23:22Z</time>
      </trkpt>
      <trkpt lat="50.0977" lon="3.57827">
        <ele>132.32</ele>
        <time>2016-04-10T07:23:23Z</time>
      </trkpt>
      <trkpt lat="50.09782" lon="3.57789">
        <ele>133.28</ele>
        <time>2016-04-10T07:23:31Z</time>
      </trkpt>
      <trkpt lat="50.09819" lon="3.57745">
        <ele>136.16</ele>
        <time>2016-04-10T07:23:47Z</time>
      </trkpt>
      <trkpt lat="50.09848" lon="3.57707">
        <ele>139.05</ele>
        <time>2016-04-10T07:24:04Z</time>
      </trkpt>
      <trkpt lat="50.09857" lon="3.57692">
        <ele>139.53</ele>
        <time>2016-04-10T07:24:15Z</time>
      </trkpt>
      <trkpt lat="50.09866" lon="3.57675">
        <ele>140.49</ele>
        <time>2016-04-10T07:24:28Z</time>
      </trkpt>
      <trkpt lat="50.09892" lon="3.57637">
        <ele>141.45</ele>
        <time>2016-04-10T07:24:43Z</time>
      </trkpt>
      <trkpt lat="50.09923" lon="3.57581">
        <ele>141.45</ele>
        <time>2016-04-10T07:25:00Z</time>
      </trkpt>
      <trkpt lat="50.09925" lon="3.57577">
        <ele>141.45</ele>
        <time>2016-04-10T07:25:01Z</time>
      </trkpt>
      <trkpt lat="50.09939" lon="3.57561">
        <ele>140.01</ele>
        <time>2016-04-10T07:25:07Z</time>
      </trkpt>
      <trkpt lat="50.09974" lon="3.57511">
        <ele>137.61</ele>
        <time>2016-04-10T07:25:22Z</time>
      </trkpt>
      <trkpt lat="50.10017" lon="3.57456">
        <ele>134.72</ele>
        <time>2016-04-10T07:25:36Z</time>
      </trkpt>
      <trkpt lat="50.10059" lon="3.57411">
        <ele>132.8</ele>
        <time>2016-04-10T07:25:50Z</time>
      </trkpt>
      <trkpt lat="50.10103" lon="3.57379">
        <ele>130.88</ele>
        <time>2016-04-10T07:26:05Z</time>
      </trkpt>
      <trkpt lat="50.10142" lon="3.5735">
        <ele>130.88</ele>
        <time>2016-04-10T07:26:19Z</time>
      </trkpt>
      <trkpt lat="50.10168" lon="3.57316">
        <ele>131.84</ele>
        <time>2016-04-10T07:26:30Z</time>
      </trkpt>
      <trkpt lat="50.10173" lon="3.57309">
        <ele>131.84</ele>
        <time>2016-04-10T07:26:33Z</time>
      </trkpt>
      <trkpt lat="50.10177" lon="3.57315">
        <ele>131.84</ele>
        <time>2016-04-10T07:26:36Z</time>
      </trkpt>
      <trkpt lat="50.10177" lon="3.57319">
        <ele>131.84</ele>
        <time>2016-04-10T07:26:37Z</time>
      </trkpt>
      <trkpt lat="50.10177" lon="3.57324">
        <ele>131.84</ele>
        <time>2016-04-10T07:26:38Z</time>
      </trkpt>
      <trkpt lat="50.10177" lon="3.57329">
        <ele>131.84</ele>
        <time>2016-04-10T07:26:39Z</time>
      </trkpt>
      <trkpt lat="50.10177" lon="3.57334">
        <ele>130.4</ele>
        <time>2016-04-10T07:26:40Z</time>
      </trkpt>
      <trkpt lat="50.10175" lon="3.57409">
        <ele>128.47</ele>
        <time>2016-04-10T07:26:54Z</time>
      </trkpt>
      <trkpt lat="50.10162" lon="3.57488">
        <ele>127.51</ele>
        <time>2016-04-10T07:27:10Z</time>
      </trkpt>
      <trkpt lat="50.10149" lon="3.57566">
        <ele>127.03</ele>
        <time>2016-04-10T07:27:25Z</time>
      </trkpt>
      <trkpt lat="50.10138" lon="3.5764">
        <ele>127.03</ele>
        <time>2016-04-10T07:27:41Z</time>
      </trkpt>
      <trkpt lat="50.10139" lon="3.57711">
        <ele>126.07</ele>
        <time>2016-04-10T07:27:56Z</time>
      </trkpt>
      <trkpt lat="50.10141" lon="3.57717">
        <ele>125.59</ele>
        <time>2016-04-10T07:27:57Z</time>
      </trkpt>
      <trkpt lat="50.10143" lon="3.57723">
        <ele>125.59</ele>
        <time>2016-04-10T07:27:58Z</time>
      </trkpt>
      <trkpt lat="50.10148" lon="3.57734">
        <ele>125.11</ele>
        <time>2016-04-10T07:28:00Z</time>
      </trkpt>
      <trkpt lat="50.10151" lon="3.5774">
        <ele>124.63</ele>
        <time>2016-04-10T07:28:01Z</time>
      </trkpt>
      <trkpt lat="50.1017" lon="3.57788">
        <ele>121.74</ele>
        <time>2016-04-10T07:28:08Z</time>
      </trkpt>
      <trkpt lat="50.10173" lon="3.57795">
        <ele>121.74</ele>
        <time>2016-04-10T07:28:09Z</time>
      </trkpt>
      <trkpt lat="50.10195" lon="3.57852">
        <ele>118.38</ele>
        <time>2016-04-10T07:28:16Z</time>
      </trkpt>
      <trkpt lat="50.10214" lon="3.57903">
        <ele>115.5</ele>
        <time>2016-04-10T07:28:23Z</time>
      </trkpt>
      <trkpt lat="50.10217" lon="3.57909">
        <ele>115.5</ele>
        <time>2016-04-10T07:28:24Z</time>
      </trkpt>
      <trkpt lat="50.10219" lon="3.57914">
        <ele>114.53</ele>
        <time>2016-04-10T07:28:25Z</time>
      </trkpt>
      <trkpt lat="50.10228" lon="3.57951">
        <ele>113.09</ele>
        <time>2016-04-10T07:28:32Z</time>
      </trkpt>
      <trkpt lat="50.1022" lon="3.57979">
        <ele>114.53</ele>
        <time>2016-04-10T07:28:40Z</time>
      </trkpt>
      <trkpt lat="50.10205" lon="3.58044">
        <ele>115.98</ele>
        <time>2016-04-10T07:28:51Z</time>
      </trkpt>
      <trkpt lat="50.10205" lon="3.58058">
        <ele>115.98</ele>
        <time>2016-04-10T07:28:53Z</time>
      </trkpt>
      <trkpt lat="50.10216" lon="3.58179">
        <ele>117.42</ele>
        <time>2016-04-10T07:29:13Z</time>
      </trkpt>
      <trkpt lat="50.10206" lon="3.58244">
        <ele>119.82</ele>
        <time>2016-04-10T07:29:25Z</time>
      </trkpt>
      <trkpt lat="50.10204" lon="3.58256">
        <ele>120.3</ele>
        <time>2016-04-10T07:29:27Z</time>
      </trkpt>
      <trkpt lat="50.10203" lon="3.58262">
        <ele>120.3</ele>
        <time>2016-04-10T07:29:28Z</time>
      </trkpt>
      <trkpt lat="50.10201" lon="3.58269">
        <ele>121.26</ele>
        <time>2016-04-10T07:29:29Z</time>
      </trkpt>
      <trkpt lat="50.10185" lon="3.58342">
        <ele>124.15</ele>
        <time>2016-04-10T07:29:42Z</time>
      </trkpt>
      <trkpt lat="50.1018" lon="3.5837">
        <ele>125.59</ele>
        <time>2016-04-10T07:29:47Z</time>
      </trkpt>
      <trkpt lat="50.10174" lon="3.5841">
        <ele>127.03</ele>
        <time>2016-04-10T07:29:55Z</time>
      </trkpt>
      <trkpt lat="50.10175" lon="3.58413">
        <ele>127.03</ele>
        <time>2016-04-10T07:29:56Z</time>
      </trkpt>
      <trkpt lat="50.10177" lon="3.58416">
        <ele>127.03</ele>
        <time>2016-04-10T07:29:57Z</time>
      </trkpt>
      <trkpt lat="50.10179" lon="3.58417">
        <ele>127.51</ele>
        <time>2016-04-10T07:29:58Z</time>
      </trkpt>
      <trkpt lat="50.10181" lon="3.58418">
        <ele>127.99</ele>
        <time>2016-04-10T07:29:59Z</time>
      </trkpt>
      <trkpt lat="50.10184" lon="3.58417">
        <ele>127.99</ele>
        <time>2016-04-10T07:30:00Z</time>
      </trkpt>
      <trkpt lat="50.10187" lon="3.58416">
        <ele>128.95</ele>
        <time>2016-04-10T07:30:01Z</time>
      </trkpt>
      <trkpt lat="50.10189" lon="3.58415">
        <ele>128.95</ele>
        <time>2016-04-10T07:30:02Z</time>
      </trkpt>
      <trkpt lat="50.10191" lon="3.58415">
        <ele>128.95</ele>
        <time>2016-04-10T07:30:03Z</time>
      </trkpt>
      <trkpt lat="50.10194" lon="3.58414">
        <ele>128.95</ele>
        <time>2016-04-10T07:30:04Z</time>
      </trkpt>
      <trkpt lat="50.10196" lon="3.58414">
        <ele>129.43</ele>
        <time>2016-04-10T07:30:05Z</time>
      </trkpt>
      <trkpt lat="50.10198" lon="3.58413">
        <ele>129.43</ele>
        <time>2016-04-10T07:30:06Z</time>
      </trkpt>
      <trkpt lat="50.102" lon="3.58412">
        <ele>129.43</ele>
        <time>2016-04-10T07:30:07Z</time>
      </trkpt>
      <trkpt lat="50.10231" lon="3.58402">
        <ele>129.92</ele>
        <time>2016-04-10T07:30:19Z</time>
      </trkpt>
      <trkpt lat="50.10269" lon="3.58389">
        <ele>130.4</ele>
        <time>2016-04-10T07:30:33Z</time>
      </trkpt>
      <trkpt lat="50.10325" lon="3.58372">
        <ele>130.4</ele>
        <time>2016-04-10T07:30:49Z</time>
      </trkpt>
      <trkpt lat="50.10369" lon="3.58357">
        <ele>131.36</ele>
        <time>2016-04-10T07:31:04Z</time>
      </trkpt>
      <trkpt lat="50.10422" lon="3.58342">
        <ele>132.8</ele>
        <time>2016-04-10T07:31:22Z</time>
      </trkpt>
      <trkpt lat="50.10478" lon="3.58323">
        <ele>133.28</ele>
        <time>2016-04-10T07:31:41Z</time>
      </trkpt>
      <trkpt lat="50.10499" lon="3.58322">
        <ele>133.28</ele>
        <time>2016-04-10T07:31:47Z</time>
      </trkpt>
      <trkpt lat="50.10504" lon="3.5838">
        <ele>133.28</ele>
        <time>2016-04-10T07:31:59Z</time>
      </trkpt>
      <trkpt lat="50.10512" lon="3.58462">
        <ele>135.68</ele>
        <time>2016-04-10T07:32:17Z</time>
      </trkpt>
      <trkpt lat="50.10516" lon="3.58517">
        <ele>137.61</ele>
        <time>2016-04-10T07:32:31Z</time>
      </trkpt>
      <trkpt lat="50.10522" lon="3.58555">
        <ele>138.09</ele>
        <time>2016-04-10T07:32:42Z</time>
      </trkpt>
      <trkpt lat="50.10527" lon="3.58594">
        <ele>139.53</ele>
        <time>2016-04-10T07:32:56Z</time>
      </trkpt>
      <trkpt lat="50.10531" lon="3.5862">
        <ele>140.49</ele>
        <time>2016-04-10T07:33:04Z</time>
      </trkpt>
      <trkpt lat="50.10531" lon="3.58624">
        <ele>140.49</ele>
        <time>2016-04-10T07:33:05Z</time>
      </trkpt>
      <trkpt lat="50.10536" lon="3.58667">
        <ele>141.45</ele>
        <time>2016-04-10T07:33:20Z</time>
      </trkpt>
      <trkpt lat="50.10543" lon="3.58717">
        <ele>142.89</ele>
        <time>2016-04-10T07:33:37Z</time>
      </trkpt>
      <trkpt lat="50.10549" lon="3.58757">
        <ele>142.89</ele>
        <time>2016-04-10T07:33:50Z</time>
      </trkpt>
      <trkpt lat="50.10554" lon="3.58795">
        <ele>144.34</ele>
        <time>2016-04-10T07:34:04Z</time>
      </trkpt>
      <trkpt lat="50.10564" lon="3.58834">
        <ele>144.82</ele>
        <time>2016-04-10T07:34:19Z</time>
      </trkpt>
      <trkpt lat="50.10573" lon="3.58893">
        <ele>144.82</ele>
        <time>2016-04-10T07:34:34Z</time>
      </trkpt>
      <trkpt lat="50.10575" lon="3.58934">
        <ele>145.78</ele>
        <time>2016-04-10T07:34:46Z</time>
      </trkpt>
      <trkpt lat="50.10578" lon="3.58983">
        <ele>145.78</ele>
        <time>2016-04-10T07:34:59Z</time>
      </trkpt>
      <trkpt lat="50.10583" lon="3.59037">
        <ele>145.78</ele>
        <time>2016-04-10T07:35:14Z</time>
      </trkpt>
      <trkpt lat="50.10592" lon="3.59097">
        <ele>144.82</ele>
        <time>2016-04-10T07:35:28Z</time>
      </trkpt>
      <trkpt lat="50.10606" lon="3.59156">
        <ele>143.85</ele>
        <time>2016-04-10T07:35:44Z</time>
      </trkpt>
      <trkpt lat="50.10614" lon="3.59192">
        <ele>143.37</ele>
        <time>2016-04-10T07:35:57Z</time>
      </trkpt>
      <trkpt lat="50.1062" lon="3.59213">
        <ele>142.89</ele>
        <time>2016-04-10T07:36:07Z</time>
      </trkpt>
      <trkpt lat="50.10626" lon="3.59241">
        <ele>142.89</ele>
        <time>2016-04-10T07:36:21Z</time>
      </trkpt>
      <trkpt lat="50.10626" lon="3.59243">
        <ele>142.89</ele>
        <time>2016-04-10T07:36:22Z</time>
      </trkpt>
      <trkpt lat="50.10631" lon="3.59266">
        <ele>142.89</ele>
        <time>2016-04-10T07:36:33Z</time>
      </trkpt>
      <trkpt lat="50.10644" lon="3.59323">
        <ele>142.89</ele>
        <time>2016-04-10T07:36:50Z</time>
      </trkpt>
      <trkpt lat="50.10645" lon="3.59328">
        <ele>143.85</ele>
        <time>2016-04-10T07:36:52Z</time>
      </trkpt>
      <trkpt lat="50.10652" lon="3.59371">
        <ele>144.82</ele>
        <time>2016-04-10T07:37:06Z</time>
      </trkpt>
      <trkpt lat="50.10656" lon="3.59436">
        <ele>146.26</ele>
        <time>2016-04-10T07:37:25Z</time>
      </trkpt>
      <trkpt lat="50.10671" lon="3.59485">
        <ele>147.22</ele>
        <time>2016-04-10T07:37:39Z</time>
      </trkpt>
      <trkpt lat="50.10681" lon="3.59536">
        <ele>149.14</ele>
        <time>2016-04-10T07:37:54Z</time>
      </trkpt>
      <trkpt lat="50.10693" lon="3.59587">
        <ele>150.58</ele>
        <time>2016-04-10T07:38:08Z</time>
      </trkpt>
      <trkpt lat="50.10705" lon="3.59642">
        <ele>152.03</ele>
        <time>2016-04-10T07:38:23Z</time>
      </trkpt>
      <trkpt lat="50.10732" lon="3.59668">
        <ele>152.03</ele>
        <time>2016-04-10T07:38:35Z</time>
      </trkpt>
      <trkpt lat="50.1077" lon="3.59699">
        <ele>152.51</ele>
        <time>2016-04-10T07:38:48Z</time>
      </trkpt>
      <trkpt lat="50.10803" lon="3.5976">
        <ele>153.47</ele>
        <time>2016-04-10T07:39:03Z</time>
      </trkpt>
      <trkpt lat="50.10804" lon="3.59763">
        <ele>153.47</ele>
        <time>2016-04-10T07:39:04Z</time>
      </trkpt>
      <trkpt lat="50.10804" lon="3.59767">
        <ele>153.47</ele>
        <time>2016-04-10T07:39:05Z</time>
      </trkpt>
      <trkpt lat="50.10795" lon="3.59779">
        <ele>153.47</ele>
        <time>2016-04-10T07:39:09Z</time>
      </trkpt>
      <trkpt lat="50.10733" lon="3.59829">
        <ele>153.47</ele>
        <time>2016-04-10T07:39:27Z</time>
      </trkpt>
      <trkpt lat="50.10703" lon="3.59843">
        <ele>153.47</ele>
        <time>2016-04-10T07:39:36Z</time>
      </trkpt>
      <trkpt lat="50.10703" lon="3.59845">
        <ele>153.47</ele>
        <time>2016-04-10T07:39:37Z</time>
      </trkpt>
      <trkpt lat="50.10704" lon="3.59848">
        <ele>153.47</ele>
        <time>2016-04-10T07:39:38Z</time>
      </trkpt>
      <trkpt lat="50.10705" lon="3.59851">
        <ele>153.47</ele>
        <time>2016-04-10T07:39:39Z</time>
      </trkpt>
      <trkpt lat="50.10706" lon="3.59855">
        <ele>153.47</ele>
        <time>2016-04-10T07:39:40Z</time>
      </trkpt>
      <trkpt lat="50.10707" lon="3.5986">
        <ele>153.47</ele>
        <time>2016-04-10T07:39:41Z</time>
      </trkpt>
      <trkpt lat="50.10708" lon="3.59867">
        <ele>153.47</ele>
        <time>2016-04-10T07:39:42Z</time>
      </trkpt>
      <trkpt lat="50.1073" lon="3.59978">
        <ele>152.03</ele>
        <time>2016-04-10T07:39:59Z</time>
      </trkpt>
      <trkpt lat="50.10745" lon="3.60054">
        <ele>151.06</ele>
        <time>2016-04-10T07:40:09Z</time>
      </trkpt>
      <trkpt lat="50.10747" lon="3.6006">
        <ele>151.06</ele>
        <time>2016-04-10T07:40:10Z</time>
      </trkpt>
      <trkpt lat="50.10751" lon="3.60064">
        <ele>150.58</ele>
        <time>2016-04-10T07:40:11Z</time>
      </trkpt>
      <trkpt lat="50.10757" lon="3.60066">
        <ele>151.06</ele>
        <time>2016-04-10T07:40:12Z</time>
      </trkpt>
      <trkpt lat="50.10762" lon="3.60066">
        <ele>150.1</ele>
        <time>2016-04-10T07:40:13Z</time>
      </trkpt>
      <trkpt lat="50.10768" lon="3.60065">
        <ele>150.1</ele>
        <time>2016-04-10T07:40:14Z</time>
      </trkpt>
      <trkpt lat="50.10773" lon="3.60063">
        <ele>149.62</ele>
        <time>2016-04-10T07:40:15Z</time>
      </trkpt>
      <trkpt lat="50.1079" lon="3.60059">
        <ele>149.14</ele>
        <time>2016-04-10T07:40:18Z</time>
      </trkpt>
      <trkpt lat="50.10796" lon="3.60058">
        <ele>149.14</ele>
        <time>2016-04-10T07:40:19Z</time>
      </trkpt>
      <trkpt lat="50.10801" lon="3.60057">
        <ele>149.14</ele>
        <time>2016-04-10T07:40:20Z</time>
      </trkpt>
      <trkpt lat="50.10868" lon="3.60055">
        <ele>148.66</ele>
        <time>2016-04-10T07:40:33Z</time>
      </trkpt>
      <trkpt lat="50.10872" lon="3.60055">
        <ele>148.66</ele>
        <time>2016-04-10T07:40:34Z</time>
      </trkpt>
      <trkpt lat="50.10923" lon="3.60041">
        <ele>152.03</ele>
        <time>2016-04-10T07:40:48Z</time>
      </trkpt>
      <trkpt lat="50.10976" lon="3.60026">
        <ele>153.47</ele>
        <time>2016-04-10T07:41:02Z</time>
      </trkpt>
      <trkpt lat="50.11014" lon="3.60003">
        <ele>153.95</ele>
        <time>2016-04-10T07:41:14Z</time>
      </trkpt>
      <trkpt lat="50.11046" lon="3.5997">
        <ele>154.43</ele>
        <time>2016-04-10T07:41:26Z</time>
      </trkpt>
      <trkpt lat="50.11059" lon="3.59958">
        <ele>154.43</ele>
        <time>2016-04-10T07:41:30Z</time>
      </trkpt>
      <trkpt lat="50.11062" lon="3.59954">
        <ele>154.43</ele>
        <time>2016-04-10T07:41:31Z</time>
      </trkpt>
      <trkpt lat="50.11085" lon="3.59931">
        <ele>152.51</ele>
        <time>2016-04-10T07:41:37Z</time>
      </trkpt>
      <trkpt lat="50.11088" lon="3.59931">
        <ele>152.03</ele>
        <time>2016-04-10T07:41:38Z</time>
      </trkpt>
      <trkpt lat="50.11092" lon="3.59933">
        <ele>152.03</ele>
        <time>2016-04-10T07:41:39Z</time>
      </trkpt>
      <trkpt lat="50.11095" lon="3.59936">
        <ele>152.03</ele>
        <time>2016-04-10T07:41:40Z</time>
      </trkpt>
      <trkpt lat="50.11098" lon="3.5994">
        <ele>152.03</ele>
        <time>2016-04-10T07:41:41Z</time>
      </trkpt>
      <trkpt lat="50.111" lon="3.59944">
        <ele>152.03</ele>
        <time>2016-04-10T07:41:42Z</time>
      </trkpt>
      <trkpt lat="50.11103" lon="3.59947">
        <ele>152.03</ele>
        <time>2016-04-10T07:41:43Z</time>
      </trkpt>
      <trkpt lat="50.11147" lon="3.60007">
        <ele>153.95</ele>
        <time>2016-04-10T07:41:59Z</time>
      </trkpt>
      <trkpt lat="50.11164" lon="3.60053">
        <ele>153.95</ele>
        <time>2016-04-10T07:42:12Z</time>
      </trkpt>
      <trkpt lat="50.11165" lon="3.60055">
        <ele>153.95</ele>
        <time>2016-04-10T07:42:13Z</time>
      </trkpt>
      <trkpt lat="50.11167" lon="3.60057">
        <ele>153.95</ele>
        <time>2016-04-10T07:42:14Z</time>
      </trkpt>
      <trkpt lat="50.1117" lon="3.60058">
        <ele>154.43</ele>
        <time>2016-04-10T07:42:23Z</time>
      </trkpt>
      <trkpt lat="50.11168" lon="3.60058">
        <ele>154.43</ele>
        <time>2016-04-10T07:42:57Z</time>
      </trkpt>
      <trkpt lat="50.11172" lon="3.60056">
        <ele>154.43</ele>
        <time>2016-04-10T07:43:30Z</time>
      </trkpt>
      <trkpt lat="50.1117" lon="3.60061">
        <ele>154.43</ele>
        <time>2016-04-10T07:43:55Z</time>
      </trkpt>
      <trkpt lat="50.11169" lon="3.60063">
        <ele>154.43</ele>
        <time>2016-04-10T07:43:56Z</time>
      </trkpt>
      <trkpt lat="50.11168" lon="3.60065">
        <ele>154.43</ele>
        <time>2016-04-10T07:43:57Z</time>
      </trkpt>
      <trkpt lat="50.11168" lon="3.60068">
        <ele>154.43</ele>
        <time>2016-04-10T07:43:58Z</time>
      </trkpt>
      <trkpt lat="50.11167" lon="3.6007">
        <ele>154.43</ele>
        <time>2016-04-10T07:43:59Z</time>
      </trkpt>
      <trkpt lat="50.11165" lon="3.60071">
        <ele>154.43</ele>
        <time>2016-04-10T07:44:00Z</time>
      </trkpt>
      <trkpt lat="50.11164" lon="3.60072">
        <ele>154.43</ele>
        <time>2016-04-10T07:44:01Z</time>
      </trkpt>
      <trkpt lat="50.1115" lon="3.60093">
        <ele>154.91</ele>
        <time>2016-04-10T07:44:12Z</time>
      </trkpt>
      <trkpt lat="50.11131" lon="3.60119">
        <ele>155.39</ele>
        <time>2016-04-10T07:44:25Z</time>
      </trkpt>
      <trkpt lat="50.11114" lon="3.60161">
        <ele>155.39</ele>
        <time>2016-04-10T07:44:38Z</time>
      </trkpt>
      <trkpt lat="50.11102" lon="3.602">
        <ele>156.35</ele>
        <time>2016-04-10T07:44:51Z</time>
      </trkpt>
      <trkpt lat="50.11094" lon="3.60234">
        <ele>156.83</ele>
        <time>2016-04-10T07:45:02Z</time>
      </trkpt>
      <trkpt lat="50.1107" lon="3.6027">
        <ele>156.83</ele>
        <time>2016-04-10T07:45:13Z</time>
      </trkpt>
      <trkpt lat="50.11041" lon="3.60302">
        <ele>156.83</ele>
        <time>2016-04-10T07:45:24Z</time>
      </trkpt>
      <trkpt lat="50.11002" lon="3.60318">
        <ele>154.91</ele>
        <time>2016-04-10T07:45:35Z</time>
      </trkpt>
      <trkpt lat="50.10952" lon="3.60304">
        <ele>153.47</ele>
        <time>2016-04-10T07:45:47Z</time>
      </trkpt>
      <trkpt lat="50.10913" lon="3.60289">
        <ele>152.03</ele>
        <time>2016-04-10T07:45:58Z</time>
      </trkpt>
      <trkpt lat="50.10878" lon="3.60272">
        <ele>150.58</ele>
        <time>2016-04-10T07:46:08Z</time>
      </trkpt>
      <trkpt lat="50.10834" lon="3.60272">
        <ele>148.66</ele>
        <time>2016-04-10T07:46:20Z</time>
      </trkpt>
      <trkpt lat="50.1081" lon="3.60292">
        <ele>147.22</ele>
        <time>2016-04-10T07:46:30Z</time>
      </trkpt>
      <trkpt lat="50.10801" lon="3.60316">
        <ele>146.74</ele>
        <time>2016-04-10T07:46:39Z</time>
      </trkpt>
      <trkpt lat="50.108" lon="3.60318">
        <ele>146.74</ele>
        <time>2016-04-10T07:46:40Z</time>
      </trkpt>
      <trkpt lat="50.10777" lon="3.60339">
        <ele>146.74</ele>
        <time>2016-04-10T07:46:48Z</time>
      </trkpt>
      <trkpt lat="50.10743" lon="3.60385">
        <ele>146.74</ele>
        <time>2016-04-10T07:47:01Z</time>
      </trkpt>
      <trkpt lat="50.10721" lon="3.60431">
        <ele>146.74</ele>
        <time>2016-04-10T07:47:12Z</time>
      </trkpt>
      <trkpt lat="50.10702" lon="3.60478">
        <ele>146.26</ele>
        <time>2016-04-10T07:47:23Z</time>
      </trkpt>
      <trkpt lat="50.10684" lon="3.60527">
        <ele>146.26</ele>
        <time>2016-04-10T07:47:34Z</time>
      </trkpt>
      <trkpt lat="50.10674" lon="3.60561">
        <ele>145.78</ele>
        <time>2016-04-10T07:47:41Z</time>
      </trkpt>
      <trkpt lat="50.10664" lon="3.60591">
        <ele>146.26</ele>
        <time>2016-04-10T07:47:48Z</time>
      </trkpt>
      <trkpt lat="50.10651" lon="3.60625">
        <ele>145.78</ele>
        <time>2016-04-10T07:47:55Z</time>
      </trkpt>
      <trkpt lat="50.10632" lon="3.6068">
        <ele>145.78</ele>
        <time>2016-04-10T07:48:07Z</time>
      </trkpt>
      <trkpt lat="50.10622" lon="3.60711">
        <ele>145.78</ele>
        <time>2016-04-10T07:48:15Z</time>
      </trkpt>
      <trkpt lat="50.10617" lon="3.6074">
        <ele>145.78</ele>
        <time>2016-04-10T07:48:21Z</time>
      </trkpt>
      <trkpt lat="50.10618" lon="3.60755">
        <ele>145.3</ele>
        <time>2016-04-10T07:48:24Z</time>
      </trkpt>
      <trkpt lat="50.10606" lon="3.60792">
        <ele>145.3</ele>
        <time>2016-04-10T07:48:32Z</time>
      </trkpt>
      <trkpt lat="50.10599" lon="3.6084">
        <ele>145.3</ele>
        <time>2016-04-10T07:48:41Z</time>
      </trkpt>
      <trkpt lat="50.10594" lon="3.6086">
        <ele>145.3</ele>
        <time>2016-04-10T07:48:45Z</time>
      </trkpt>
      <trkpt lat="50.1059" lon="3.60878">
        <ele>145.3</ele>
        <time>2016-04-10T07:48:49Z</time>
      </trkpt>
      <trkpt lat="50.10588" lon="3.60884">
        <ele>145.3</ele>
        <time>2016-04-10T07:48:51Z</time>
      </trkpt>
      <trkpt lat="50.1057" lon="3.60907">
        <ele>145.3</ele>
        <time>2016-04-10T07:48:57Z</time>
      </trkpt>
      <trkpt lat="50.10545" lon="3.60908">
        <ele>145.3</ele>
        <time>2016-04-10T07:49:04Z</time>
      </trkpt>
      <trkpt lat="50.10511" lon="3.60879">
        <ele>145.3</ele>
        <time>2016-04-10T07:49:16Z</time>
      </trkpt>
      <trkpt lat="50.10489" lon="3.60857">
        <ele>146.74</ele>
        <time>2016-04-10T07:49:26Z</time>
      </trkpt>
      <trkpt lat="50.10468" lon="3.60836">
        <ele>147.7</ele>
        <time>2016-04-10T07:49:38Z</time>
      </trkpt>
      <trkpt lat="50.10463" lon="3.60829">
        <ele>148.18</ele>
        <time>2016-04-10T07:49:42Z</time>
      </trkpt>
      <trkpt lat="50.10463" lon="3.60827">
        <ele>148.18</ele>
        <time>2016-04-10T07:49:43Z</time>
      </trkpt>
      <trkpt lat="50.10467" lon="3.60817">
        <ele>148.18</ele>
        <time>2016-04-10T07:49:47Z</time>
      </trkpt>
      <trkpt lat="50.10465" lon="3.60793">
        <ele>148.18</ele>
        <time>2016-04-10T07:49:57Z</time>
      </trkpt>
      <trkpt lat="50.10477" lon="3.60767">
        <ele>148.66</ele>
        <time>2016-04-10T07:50:08Z</time>
      </trkpt>
      <trkpt lat="50.1048" lon="3.60757">
        <ele>148.66</ele>
        <time>2016-04-10T07:50:11Z</time>
      </trkpt>
      <trkpt lat="50.10497" lon="3.6072">
        <ele>149.14</ele>
        <time>2016-04-10T07:50:24Z</time>
      </trkpt>
      <trkpt lat="50.10499" lon="3.60712">
        <ele>149.62</ele>
        <time>2016-04-10T07:50:28Z</time>
      </trkpt>
      <trkpt lat="50.10504" lon="3.60703">
        <ele>149.62</ele>
        <time>2016-04-10T07:50:33Z</time>
      </trkpt>
      <trkpt lat="50.10511" lon="3.60686">
        <ele>149.62</ele>
        <time>2016-04-10T07:50:38Z</time>
      </trkpt>
      <trkpt lat="50.10518" lon="3.60656">
        <ele>149.62</ele>
        <time>2016-04-10T07:50:47Z</time>
      </trkpt>
      <trkpt lat="50.10519" lon="3.60641">
        <ele>150.58</ele>
        <time>2016-04-10T07:50:52Z</time>
      </trkpt>
      <trkpt lat="50.10508" lon="3.60598">
        <ele>151.54</ele>
        <time>2016-04-10T07:51:07Z</time>
      </trkpt>
      <trkpt lat="50.10495" lon="3.60569">
        <ele>152.51</ele>
        <time>2016-04-10T07:51:18Z</time>
      </trkpt>
      <trkpt lat="50.10486" lon="3.60549">
        <ele>152.99</ele>
        <time>2016-04-10T07:51:26Z</time>
      </trkpt>
      <trkpt lat="50.10477" lon="3.60529">
        <ele>153.47</ele>
        <time>2016-04-10T07:51:33Z</time>
      </trkpt>
      <trkpt lat="50.10473" lon="3.60518">
        <ele>153.47</ele>
        <time>2016-04-10T07:51:37Z</time>
      </trkpt>
      <trkpt lat="50.10468" lon="3.60506">
        <ele>153.47</ele>
        <time>2016-04-10T07:51:41Z</time>
      </trkpt>
      <trkpt lat="50.10455" lon="3.60479">
        <ele>153.95</ele>
        <time>2016-04-10T07:51:50Z</time>
      </trkpt>
      <trkpt lat="50.10438" lon="3.60452">
        <ele>153.95</ele>
        <time>2016-04-10T07:52:00Z</time>
      </trkpt>
      <trkpt lat="50.10418" lon="3.60422">
        <ele>153.95</ele>
        <time>2016-04-10T07:52:11Z</time>
      </trkpt>
      <trkpt lat="50.10406" lon="3.60406">
        <ele>153.95</ele>
        <time>2016-04-10T07:52:18Z</time>
      </trkpt>
      <trkpt lat="50.10403" lon="3.604">
        <ele>153.95</ele>
        <time>2016-04-10T07:52:20Z</time>
      </trkpt>
      <trkpt lat="50.10397" lon="3.60391">
        <ele>154.43</ele>
        <time>2016-04-10T07:52:24Z</time>
      </trkpt>
      <trkpt lat="50.1039" lon="3.60382">
        <ele>154.43</ele>
        <time>2016-04-10T07:52:28Z</time>
      </trkpt>
      <trkpt lat="50.10382" lon="3.60368">
        <ele>154.43</ele>
        <time>2016-04-10T07:52:33Z</time>
      </trkpt>
      <trkpt lat="50.10377" lon="3.60361">
        <ele>154.43</ele>
        <time>2016-04-10T07:52:36Z</time>
      </trkpt>
      <trkpt lat="50.10371" lon="3.60347">
        <ele>154.43</ele>
        <time>2016-04-10T07:52:41Z</time>
      </trkpt>
      <trkpt lat="50.10362" lon="3.60334">
        <ele>154.91</ele>
        <time>2016-04-10T07:52:46Z</time>
      </trkpt>
      <trkpt lat="50.10331" lon="3.60321">
        <ele>155.39</ele>
        <time>2016-04-10T07:52:57Z</time>
      </trkpt>
      <trkpt lat="50.10313" lon="3.60322">
        <ele>155.39</ele>
        <time>2016-04-10T07:53:03Z</time>
      </trkpt>
      <trkpt lat="50.103" lon="3.60327">
        <ele>153.95</ele>
        <time>2016-04-10T07:53:07Z</time>
      </trkpt>
      <trkpt lat="50.10294" lon="3.6033">
        <ele>153.47</ele>
        <time>2016-04-10T07:53:09Z</time>
      </trkpt>
      <trkpt lat="50.10288" lon="3.6034">
        <ele>152.99</ele>
        <time>2016-04-10T07:53:12Z</time>
      </trkpt>
      <trkpt lat="50.10282" lon="3.60344">
        <ele>152.03</ele>
        <time>2016-04-10T07:53:15Z</time>
      </trkpt>
      <trkpt lat="50.10265" lon="3.60331">
        <ele>151.54</ele>
        <time>2016-04-10T07:53:23Z</time>
      </trkpt>
      <trkpt lat="50.1026" lon="3.60313">
        <ele>152.99</ele>
        <time>2016-04-10T07:53:27Z</time>
      </trkpt>
      <trkpt lat="50.10255" lon="3.60296">
        <ele>152.99</ele>
        <time>2016-04-10T07:53:30Z</time>
      </trkpt>
      <trkpt lat="50.10238" lon="3.60249">
        <ele>152.99</ele>
        <time>2016-04-10T07:53:40Z</time>
      </trkpt>
      <trkpt lat="50.1023" lon="3.60239">
        <ele>152.99</ele>
        <time>2016-04-10T07:53:43Z</time>
      </trkpt>
      <trkpt lat="50.10207" lon="3.60222">
        <ele>151.54</ele>
        <time>2016-04-10T07:53:49Z</time>
      </trkpt>
      <trkpt lat="50.10172" lon="3.60197">
        <ele>150.1</ele>
        <time>2016-04-10T07:53:59Z</time>
      </trkpt>
      <trkpt lat="50.1014" lon="3.60162">
        <ele>148.66</ele>
        <time>2016-04-10T07:54:10Z</time>
      </trkpt>
      <trkpt lat="50.10115" lon="3.6012">
        <ele>147.7</ele>
        <time>2016-04-10T07:54:20Z</time>
      </trkpt>
      <trkpt lat="50.10108" lon="3.60075">
        <ele>146.74</ele>
        <time>2016-04-10T07:54:29Z</time>
      </trkpt>
      <trkpt lat="50.10082" lon="3.60045">
        <ele>145.3</ele>
        <time>2016-04-10T07:54:38Z</time>
      </trkpt>
      <trkpt lat="50.1007" lon="3.60034">
        <ele>144.34</ele>
        <time>2016-04-10T07:54:41Z</time>
      </trkpt>
      <trkpt lat="50.10034" lon="3.60008">
        <ele>143.37</ele>
        <time>2016-04-10T07:54:51Z</time>
      </trkpt>
      <trkpt lat="50.10031" lon="3.60006">
        <ele>143.37</ele>
        <time>2016-04-10T07:54:52Z</time>
      </trkpt>
      <trkpt lat="50.10019" lon="3.59995">
        <ele>142.41</ele>
        <time>2016-04-10T07:54:56Z</time>
      </trkpt>
      <trkpt lat="50.1" lon="3.59991">
        <ele>140.97</ele>
        <time>2016-04-10T07:55:02Z</time>
      </trkpt>
      <trkpt lat="50.09967" lon="3.60014">
        <ele>140.01</ele>
        <time>2016-04-10T07:55:13Z</time>
      </trkpt>
      <trkpt lat="50.09959" lon="3.60023">
        <ele>140.01</ele>
        <time>2016-04-10T07:55:15Z</time>
      </trkpt>
      <trkpt lat="50.09937" lon="3.60062">
        <ele>140.01</ele>
        <time>2016-04-10T07:55:24Z</time>
      </trkpt>
      <trkpt lat="50.09935" lon="3.60066">
        <ele>140.01</ele>
        <time>2016-04-10T07:55:25Z</time>
      </trkpt>
      <trkpt lat="50.09933" lon="3.60069">
        <ele>140.01</ele>
        <time>2016-04-10T07:55:26Z</time>
      </trkpt>
      <trkpt lat="50.09931" lon="3.60072">
        <ele>140.01</ele>
        <time>2016-04-10T07:55:27Z</time>
      </trkpt>
      <trkpt lat="50.09927" lon="3.6008">
        <ele>140.01</ele>
        <time>2016-04-10T07:55:29Z</time>
      </trkpt>
      <trkpt lat="50.09923" lon="3.60083">
        <ele>140.01</ele>
        <time>2016-04-10T07:55:30Z</time>
      </trkpt>
      <trkpt lat="50.0992" lon="3.60087">
        <ele>140.01</ele>
        <time>2016-04-10T07:55:31Z</time>
      </trkpt>
      <trkpt lat="50.09917" lon="3.60091">
        <ele>140.01</ele>
        <time>2016-04-10T07:55:32Z</time>
      </trkpt>
      <trkpt lat="50.09915" lon="3.60095">
        <ele>140.01</ele>
        <time>2016-04-10T07:55:33Z</time>
      </trkpt>
      <trkpt lat="50.09913" lon="3.60098">
        <ele>140.01</ele>
        <time>2016-04-10T07:55:34Z</time>
      </trkpt>
      <trkpt lat="50.0991" lon="3.60101">
        <ele>140.01</ele>
        <time>2016-04-10T07:55:35Z</time>
      </trkpt>
      <trkpt lat="50.09907" lon="3.60103">
        <ele>140.01</ele>
        <time>2016-04-10T07:55:36Z</time>
      </trkpt>
      <trkpt lat="50.09905" lon="3.60106">
        <ele>140.01</ele>
        <time>2016-04-10T07:55:37Z</time>
      </trkpt>
      <trkpt lat="50.09903" lon="3.6011">
        <ele>140.01</ele>
        <time>2016-04-10T07:55:38Z</time>
      </trkpt>
      <trkpt lat="50.09901" lon="3.60113">
        <ele>140.01</ele>
        <time>2016-04-10T07:55:39Z</time>
      </trkpt>
      <trkpt lat="50.09899" lon="3.60117">
        <ele>140.01</ele>
        <time>2016-04-10T07:55:40Z</time>
      </trkpt>
      <trkpt lat="50.09897" lon="3.60121">
        <ele>141.45</ele>
        <time>2016-04-10T07:55:41Z</time>
      </trkpt>
      <trkpt lat="50.09897" lon="3.60124">
        <ele>141.45</ele>
        <time>2016-04-10T07:55:42Z</time>
      </trkpt>
      <trkpt lat="50.09898" lon="3.60163">
        <ele>142.89</ele>
        <time>2016-04-10T07:55:53Z</time>
      </trkpt>
      <trkpt lat="50.09901" lon="3.60201">
        <ele>144.82</ele>
        <time>2016-04-10T07:56:05Z</time>
      </trkpt>
      <trkpt lat="50.09902" lon="3.60207">
        <ele>144.82</ele>
        <time>2016-04-10T07:56:07Z</time>
      </trkpt>
      <trkpt lat="50.09906" lon="3.6022">
        <ele>145.3</ele>
        <time>2016-04-10T07:56:11Z</time>
      </trkpt>
      <trkpt lat="50.09909" lon="3.60241">
        <ele>145.78</ele>
        <time>2016-04-10T07:56:19Z</time>
      </trkpt>
      <trkpt lat="50.09913" lon="3.60267">
        <ele>146.74</ele>
        <time>2016-04-10T07:56:26Z</time>
      </trkpt>
      <trkpt lat="50.09912" lon="3.6028">
        <ele>147.22</ele>
        <time>2016-04-10T07:56:29Z</time>
      </trkpt>
      <trkpt lat="50.09905" lon="3.6034">
        <ele>149.14</ele>
        <time>2016-04-10T07:56:42Z</time>
      </trkpt>
      <trkpt lat="50.09901" lon="3.60362">
        <ele>149.14</ele>
        <time>2016-04-10T07:56:47Z</time>
      </trkpt>
      <trkpt lat="50.09905" lon="3.60411">
        <ele>150.58</ele>
        <time>2016-04-10T07:56:59Z</time>
      </trkpt>
      <trkpt lat="50.09905" lon="3.60415">
        <ele>151.06</ele>
        <time>2016-04-10T07:57:00Z</time>
      </trkpt>
      <trkpt lat="50.09903" lon="3.60429">
        <ele>151.06</ele>
        <time>2016-04-10T07:57:04Z</time>
      </trkpt>
      <trkpt lat="50.09896" lon="3.60449">
        <ele>152.03</ele>
        <time>2016-04-10T07:57:11Z</time>
      </trkpt>
      <trkpt lat="50.09894" lon="3.60458">
        <ele>152.03</ele>
        <time>2016-04-10T07:57:14Z</time>
      </trkpt>
      <trkpt lat="50.09888" lon="3.6047">
        <ele>152.51</ele>
        <time>2016-04-10T07:57:18Z</time>
      </trkpt>
      <trkpt lat="50.09868" lon="3.60507">
        <ele>153.47</ele>
        <time>2016-04-10T07:57:30Z</time>
      </trkpt>
      <trkpt lat="50.09851" lon="3.60529">
        <ele>153.95</ele>
        <time>2016-04-10T07:57:38Z</time>
      </trkpt>
      <trkpt lat="50.0983" lon="3.60534">
        <ele>153.95</ele>
        <time>2016-04-10T07:57:43Z</time>
      </trkpt>
      <trkpt lat="50.09822" lon="3.60531">
        <ele>153.95</ele>
        <time>2016-04-10T07:57:45Z</time>
      </trkpt>
      <trkpt lat="50.09804" lon="3.60539">
        <ele>153.95</ele>
        <time>2016-04-10T07:57:50Z</time>
      </trkpt>
      <trkpt lat="50.09774" lon="3.60583">
        <ele>153.95</ele>
        <time>2016-04-10T07:58:03Z</time>
      </trkpt>
      <trkpt lat="50.09772" lon="3.60587">
        <ele>153.95</ele>
        <time>2016-04-10T07:58:04Z</time>
      </trkpt>
      <trkpt lat="50.09764" lon="3.60606">
        <ele>153.95</ele>
        <time>2016-04-10T07:58:08Z</time>
      </trkpt>
      <trkpt lat="50.09761" lon="3.60616">
        <ele>153.95</ele>
        <time>2016-04-10T07:58:10Z</time>
      </trkpt>
      <trkpt lat="50.09759" lon="3.60627">
        <ele>154.43</ele>
        <time>2016-04-10T07:58:13Z</time>
      </trkpt>
      <trkpt lat="50.09744" lon="3.6068">
        <ele>154.91</ele>
        <time>2016-04-10T07:58:25Z</time>
      </trkpt>
      <trkpt lat="50.09728" lon="3.60728">
        <ele>154.91</ele>
        <time>2016-04-10T07:58:35Z</time>
      </trkpt>
      <trkpt lat="50.09721" lon="3.60746">
        <ele>154.91</ele>
        <time>2016-04-10T07:58:39Z</time>
      </trkpt>
      <trkpt lat="50.09711" lon="3.6079">
        <ele>154.91</ele>
        <time>2016-04-10T07:58:48Z</time>
      </trkpt>
      <trkpt lat="50.09697" lon="3.60814">
        <ele>154.91</ele>
        <time>2016-04-10T07:58:54Z</time>
      </trkpt>
      <trkpt lat="50.09665" lon="3.60848">
        <ele>153.47</ele>
        <time>2016-04-10T07:59:04Z</time>
      </trkpt>
      <trkpt lat="50.09648" lon="3.60866">
        <ele>152.03</ele>
        <time>2016-04-10T07:59:09Z</time>
      </trkpt>
      <trkpt lat="50.09601" lon="3.60887">
        <ele>149.14</ele>
        <time>2016-04-10T07:59:20Z</time>
      </trkpt>
      <trkpt lat="50.09593" lon="3.60925">
        <ele>148.66</ele>
        <time>2016-04-10T07:59:29Z</time>
      </trkpt>
      <trkpt lat="50.09601" lon="3.60982">
        <ele>150.1</ele>
        <time>2016-04-10T07:59:42Z</time>
      </trkpt>
      <trkpt lat="50.09603" lon="3.60987">
        <ele>150.1</ele>
        <time>2016-04-10T07:59:44Z</time>
      </trkpt>
      <trkpt lat="50.09608" lon="3.61024">
        <ele>151.54</ele>
        <time>2016-04-10T07:59:56Z</time>
      </trkpt>
      <trkpt lat="50.09614" lon="3.61054">
        <ele>152.03</ele>
        <time>2016-04-10T08:00:07Z</time>
      </trkpt>
      <trkpt lat="50.09622" lon="3.6109">
        <ele>153.47</ele>
        <time>2016-04-10T08:00:19Z</time>
      </trkpt>
      <trkpt lat="50.09623" lon="3.61093">
        <ele>153.47</ele>
        <time>2016-04-10T08:00:20Z</time>
      </trkpt>
      <trkpt lat="50.09626" lon="3.61108">
        <ele>153.95</ele>
        <time>2016-04-10T08:00:25Z</time>
      </trkpt>
      <trkpt lat="50.09636" lon="3.61147">
        <ele>154.43</ele>
        <time>2016-04-10T08:00:37Z</time>
      </trkpt>
      <trkpt lat="50.09651" lon="3.61195">
        <ele>154.43</ele>
        <time>2016-04-10T08:00:51Z</time>
      </trkpt>
      <trkpt lat="50.09661" lon="3.6124">
        <ele>154.43</ele>
        <time>2016-04-10T08:01:04Z</time>
      </trkpt>
      <trkpt lat="50.09673" lon="3.61284">
        <ele>154.43</ele>
        <time>2016-04-10T08:01:16Z</time>
      </trkpt>
      <trkpt lat="50.09683" lon="3.6132">
        <ele>154.91</ele>
        <time>2016-04-10T08:01:27Z</time>
      </trkpt>
      <trkpt lat="50.09684" lon="3.61323">
        <ele>154.91</ele>
        <time>2016-04-10T08:01:28Z</time>
      </trkpt>
      <trkpt lat="50.09697" lon="3.61362">
        <ele>154.91</ele>
        <time>2016-04-10T08:01:40Z</time>
      </trkpt>
      <trkpt lat="50.09714" lon="3.61414">
        <ele>154.91</ele>
        <time>2016-04-10T08:01:52Z</time>
      </trkpt>
      <trkpt lat="50.09731" lon="3.61462">
        <ele>154.91</ele>
        <time>2016-04-10T08:02:04Z</time>
      </trkpt>
      <trkpt lat="50.0974" lon="3.61485">
        <ele>154.91</ele>
        <time>2016-04-10T08:02:10Z</time>
      </trkpt>
      <trkpt lat="50.09757" lon="3.6148">
        <ele>154.91</ele>
        <time>2016-04-10T08:02:20Z</time>
      </trkpt>
      <trkpt lat="50.09779" lon="3.61456">
        <ele>154.91</ele>
        <time>2016-04-10T08:02:33Z</time>
      </trkpt>
      <trkpt lat="50.09803" lon="3.61427">
        <ele>154.91</ele>
        <time>2016-04-10T08:02:45Z</time>
      </trkpt>
      <trkpt lat="50.09817" lon="3.6139">
        <ele>153.47</ele>
        <time>2016-04-10T08:02:56Z</time>
      </trkpt>
      <trkpt lat="50.09818" lon="3.61386">
        <ele>153.47</ele>
        <time>2016-04-10T08:02:57Z</time>
      </trkpt>
      <trkpt lat="50.09827" lon="3.61337">
        <ele>152.03</ele>
        <time>2016-04-10T08:03:08Z</time>
      </trkpt>
      <trkpt lat="50.09838" lon="3.61293">
        <ele>152.51</ele>
        <time>2016-04-10T08:03:20Z</time>
      </trkpt>
      <trkpt lat="50.09844" lon="3.61277">
        <ele>153.47</ele>
        <time>2016-04-10T08:03:26Z</time>
      </trkpt>
      <trkpt lat="50.09846" lon="3.61268">
        <ele>153.47</ele>
        <time>2016-04-10T08:03:30Z</time>
      </trkpt>
      <trkpt lat="50.09848" lon="3.61262">
        <ele>153.47</ele>
        <time>2016-04-10T08:03:32Z</time>
      </trkpt>
      <trkpt lat="50.09855" lon="3.61247">
        <ele>153.95</ele>
        <time>2016-04-10T08:03:38Z</time>
      </trkpt>
      <trkpt lat="50.09858" lon="3.61241">
        <ele>153.95</ele>
        <time>2016-04-10T08:03:40Z</time>
      </trkpt>
      <trkpt lat="50.09873" lon="3.61216">
        <ele>155.39</ele>
        <time>2016-04-10T08:03:52Z</time>
      </trkpt>
      <trkpt lat="50.09896" lon="3.61205">
        <ele>155.39</ele>
        <time>2016-04-10T08:04:03Z</time>
      </trkpt>
      <trkpt lat="50.09916" lon="3.61199">
        <ele>155.39</ele>
        <time>2016-04-10T08:04:15Z</time>
      </trkpt>
      <trkpt lat="50.09934" lon="3.61197">
        <ele>155.39</ele>
        <time>2016-04-10T08:04:23Z</time>
      </trkpt>
      <trkpt lat="50.09937" lon="3.61197">
        <ele>155.39</ele>
        <time>2016-04-10T08:04:25Z</time>
      </trkpt>
      <trkpt lat="50.09968" lon="3.61197">
        <ele>154.43</ele>
        <time>2016-04-10T08:04:36Z</time>
      </trkpt>
      <trkpt lat="50.09976" lon="3.612">
        <ele>153.95</ele>
        <time>2016-04-10T08:04:39Z</time>
      </trkpt>
      <trkpt lat="50.09982" lon="3.61209">
        <ele>153.47</ele>
        <time>2016-04-10T08:04:42Z</time>
      </trkpt>
      <trkpt lat="50.09983" lon="3.61214">
        <ele>152.99</ele>
        <time>2016-04-10T08:04:43Z</time>
      </trkpt>
      <trkpt lat="50.09983" lon="3.61218">
        <ele>152.99</ele>
        <time>2016-04-10T08:04:44Z</time>
      </trkpt>
      <trkpt lat="50.09984" lon="3.61222">
        <ele>152.51</ele>
        <time>2016-04-10T08:04:45Z</time>
      </trkpt>
      <trkpt lat="50.09984" lon="3.61226">
        <ele>152.51</ele>
        <time>2016-04-10T08:04:46Z</time>
      </trkpt>
      <trkpt lat="50.09985" lon="3.6123">
        <ele>152.03</ele>
        <time>2016-04-10T08:04:47Z</time>
      </trkpt>
      <trkpt lat="50.09986" lon="3.61235">
        <ele>152.03</ele>
        <time>2016-04-10T08:04:48Z</time>
      </trkpt>
      <trkpt lat="50.09987" lon="3.6124">
        <ele>152.03</ele>
        <time>2016-04-10T08:04:49Z</time>
      </trkpt>
      <trkpt lat="50.09988" lon="3.61244">
        <ele>151.54</ele>
        <time>2016-04-10T08:04:50Z</time>
      </trkpt>
      <trkpt lat="50.09993" lon="3.61285">
        <ele>151.54</ele>
        <time>2016-04-10T08:05:01Z</time>
      </trkpt>
      <trkpt lat="50.09995" lon="3.61323">
        <ele>151.06</ele>
        <time>2016-04-10T08:05:10Z</time>
      </trkpt>
      <trkpt lat="50.09994" lon="3.61359">
        <ele>151.06</ele>
        <time>2016-04-10T08:05:22Z</time>
      </trkpt>
      <trkpt lat="50.09993" lon="3.61375">
        <ele>151.06</ele>
        <time>2016-04-10T08:05:29Z</time>
      </trkpt>
      <trkpt lat="50.09993" lon="3.61377">
        <ele>152.51</ele>
        <time>2016-04-10T08:05:30Z</time>
      </trkpt>
      <trkpt lat="50.09994" lon="3.61379">
        <ele>152.51</ele>
        <time>2016-04-10T08:05:31Z</time>
      </trkpt>
      <trkpt lat="50.09994" lon="3.61382">
        <ele>152.51</ele>
        <time>2016-04-10T08:05:32Z</time>
      </trkpt>
      <trkpt lat="50.09994" lon="3.61384">
        <ele>152.51</ele>
        <time>2016-04-10T08:05:33Z</time>
      </trkpt>
      <trkpt lat="50.09994" lon="3.61386">
        <ele>152.51</ele>
        <time>2016-04-10T08:05:34Z</time>
      </trkpt>
      <trkpt lat="50.09994" lon="3.61389">
        <ele>152.51</ele>
        <time>2016-04-10T08:05:35Z</time>
      </trkpt>
      <trkpt lat="50.09993" lon="3.61391">
        <ele>152.51</ele>
        <time>2016-04-10T08:05:36Z</time>
      </trkpt>
      <trkpt lat="50.09993" lon="3.61399">
        <ele>152.99</ele>
        <time>2016-04-10T08:05:40Z</time>
      </trkpt>
      <trkpt lat="50.09991" lon="3.61409">
        <ele>152.99</ele>
        <time>2016-04-10T08:05:45Z</time>
      </trkpt>
      <trkpt lat="50.09991" lon="3.61441">
        <ele>153.47</ele>
        <time>2016-04-10T08:06:01Z</time>
      </trkpt>
      <trkpt lat="50.09989" lon="3.61461">
        <ele>153.47</ele>
        <time>2016-04-10T08:06:12Z</time>
      </trkpt>
      <trkpt lat="50.09989" lon="3.61463">
        <ele>153.47</ele>
        <time>2016-04-10T08:06:13Z</time>
      </trkpt>
      <trkpt lat="50.09989" lon="3.61465">
        <ele>153.47</ele>
        <time>2016-04-10T08:06:14Z</time>
      </trkpt>
      <trkpt lat="50.09989" lon="3.61467">
        <ele>153.47</ele>
        <time>2016-04-10T08:06:15Z</time>
      </trkpt>
      <trkpt lat="50.0999" lon="3.61469">
        <ele>153.47</ele>
        <time>2016-04-10T08:06:16Z</time>
      </trkpt>
      <trkpt lat="50.0999" lon="3.61472">
        <ele>153.47</ele>
        <time>2016-04-10T08:06:17Z</time>
      </trkpt>
      <trkpt lat="50.0999" lon="3.61475">
        <ele>153.47</ele>
        <time>2016-04-10T08:06:18Z</time>
      </trkpt>
      <trkpt lat="50.0999" lon="3.61478">
        <ele>153.47</ele>
        <time>2016-04-10T08:06:19Z</time>
      </trkpt>
      <trkpt lat="50.09992" lon="3.61534">
        <ele>154.43</ele>
        <time>2016-04-10T08:06:32Z</time>
      </trkpt>
      <trkpt lat="50.09999" lon="3.61587">
        <ele>154.91</ele>
        <time>2016-04-10T08:06:45Z</time>
      </trkpt>
      <trkpt lat="50.10009" lon="3.61639">
        <ele>153.47</ele>
        <time>2016-04-10T08:06:56Z</time>
      </trkpt>
      <trkpt lat="50.10022" lon="3.61722">
        <ele>151.54</ele>
        <time>2016-04-10T08:07:12Z</time>
      </trkpt>
      <trkpt lat="50.10037" lon="3.61819">
        <ele>150.1</ele>
        <time>2016-04-10T08:07:29Z</time>
      </trkpt>
      <trkpt lat="50.1005" lon="3.61906">
        <ele>149.62</ele>
        <time>2016-04-10T08:07:46Z</time>
      </trkpt>
      <trkpt lat="50.10064" lon="3.6198">
        <ele>149.14</ele>
        <time>2016-04-10T08:08:01Z</time>
      </trkpt>
      <trkpt lat="50.10076" lon="3.62038">
        <ele>149.14</ele>
        <time>2016-04-10T08:08:12Z</time>
      </trkpt>
      <trkpt lat="50.10092" lon="3.6211">
        <ele>149.14</ele>
        <time>2016-04-10T08:08:26Z</time>
      </trkpt>
      <trkpt lat="50.10106" lon="3.62195">
        <ele>149.14</ele>
        <time>2016-04-10T08:08:41Z</time>
      </trkpt>
      <trkpt lat="50.10113" lon="3.62267">
        <ele>149.14</ele>
        <time>2016-04-10T08:08:54Z</time>
      </trkpt>
      <trkpt lat="50.10141" lon="3.62329">
        <ele>148.66</ele>
        <time>2016-04-10T08:09:08Z</time>
      </trkpt>
      <trkpt lat="50.10185" lon="3.62406">
        <ele>148.66</ele>
        <time>2016-04-10T08:09:27Z</time>
      </trkpt>
      <trkpt lat="50.10204" lon="3.62442">
        <ele>148.66</ele>
        <time>2016-04-10T08:09:35Z</time>
      </trkpt>
      <trkpt lat="50.1023" lon="3.6249">
        <ele>148.66</ele>
        <time>2016-04-10T08:09:44Z</time>
      </trkpt>
      <trkpt lat="50.10251" lon="3.62528">
        <ele>148.66</ele>
        <time>2016-04-10T08:09:50Z</time>
      </trkpt>
      <trkpt lat="50.10274" lon="3.62566">
        <ele>148.18</ele>
        <time>2016-04-10T08:09:56Z</time>
      </trkpt>
      <trkpt lat="50.10314" lon="3.62634">
        <ele>148.18</ele>
        <time>2016-04-10T08:10:09Z</time>
      </trkpt>
      <trkpt lat="50.10358" lon="3.62668">
        <ele>148.18</ele>
        <time>2016-04-10T08:10:21Z</time>
      </trkpt>
      <trkpt lat="50.10361" lon="3.62665">
        <ele>148.18</ele>
        <time>2016-04-10T08:10:22Z</time>
      </trkpt>
      <trkpt lat="50.10363" lon="3.62663">
        <ele>148.18</ele>
        <time>2016-04-10T08:10:23Z</time>
      </trkpt>
      <trkpt lat="50.10365" lon="3.6266">
        <ele>148.18</ele>
        <time>2016-04-10T08:10:24Z</time>
      </trkpt>
      <trkpt lat="50.10368" lon="3.62657">
        <ele>148.18</ele>
        <time>2016-04-10T08:10:25Z</time>
      </trkpt>
      <trkpt lat="50.1037" lon="3.62653">
        <ele>148.18</ele>
        <time>2016-04-10T08:10:26Z</time>
      </trkpt>
      <trkpt lat="50.10387" lon="3.62635">
        <ele>149.62</ele>
        <time>2016-04-10T08:10:32Z</time>
      </trkpt>
      <trkpt lat="50.10417" lon="3.62602">
        <ele>149.62</ele>
        <time>2016-04-10T08:10:42Z</time>
      </trkpt>
      <trkpt lat="50.10421" lon="3.62598">
        <ele>149.62</ele>
        <time>2016-04-10T08:10:43Z</time>
      </trkpt>
      <trkpt lat="50.10458" lon="3.62557">
        <ele>147.7</ele>
        <time>2016-04-10T08:10:53Z</time>
      </trkpt>
      <trkpt lat="50.10521" lon="3.62487">
        <ele>146.26</ele>
        <time>2016-04-10T08:11:08Z</time>
      </trkpt>
      <trkpt lat="50.10529" lon="3.62478">
        <ele>145.78</ele>
        <time>2016-04-10T08:11:10Z</time>
      </trkpt>
      <trkpt lat="50.10583" lon="3.624">
        <ele>145.3</ele>
        <time>2016-04-10T08:11:24Z</time>
      </trkpt>
      <trkpt lat="50.1062" lon="3.62328">
        <ele>145.3</ele>
        <time>2016-04-10T08:11:38Z</time>
      </trkpt>
      <trkpt lat="50.10653" lon="3.62269">
        <ele>147.7</ele>
        <time>2016-04-10T08:11:52Z</time>
      </trkpt>
      <trkpt lat="50.10679" lon="3.62222">
        <ele>148.66</ele>
        <time>2016-04-10T08:12:07Z</time>
      </trkpt>
      <trkpt lat="50.10705" lon="3.62175">
        <ele>149.14</ele>
        <time>2016-04-10T08:12:22Z</time>
      </trkpt>
      <trkpt lat="50.10719" lon="3.62161">
        <ele>149.62</ele>
        <time>2016-04-10T08:12:31Z</time>
      </trkpt>
      <trkpt lat="50.10721" lon="3.62162">
        <ele>149.62</ele>
        <time>2016-04-10T08:12:32Z</time>
      </trkpt>
      <trkpt lat="50.10722" lon="3.62163">
        <ele>149.62</ele>
        <time>2016-04-10T08:12:33Z</time>
      </trkpt>
      <trkpt lat="50.10724" lon="3.62165">
        <ele>149.62</ele>
        <time>2016-04-10T08:12:34Z</time>
      </trkpt>
      <trkpt lat="50.10724" lon="3.62169">
        <ele>149.62</ele>
        <time>2016-04-10T08:12:35Z</time>
      </trkpt>
      <trkpt lat="50.10725" lon="3.62172">
        <ele>149.62</ele>
        <time>2016-04-10T08:12:36Z</time>
      </trkpt>
      <trkpt lat="50.10726" lon="3.62175">
        <ele>149.62</ele>
        <time>2016-04-10T08:12:37Z</time>
      </trkpt>
      <trkpt lat="50.10728" lon="3.62177">
        <ele>149.62</ele>
        <time>2016-04-10T08:12:38Z</time>
      </trkpt>
      <trkpt lat="50.1073" lon="3.62179">
        <ele>149.62</ele>
        <time>2016-04-10T08:12:39Z</time>
      </trkpt>
      <trkpt lat="50.10732" lon="3.6218">
        <ele>149.62</ele>
        <time>2016-04-10T08:12:40Z</time>
      </trkpt>
      <trkpt lat="50.10734" lon="3.6218">
        <ele>149.62</ele>
        <time>2016-04-10T08:12:41Z</time>
      </trkpt>
      <trkpt lat="50.10736" lon="3.62181">
        <ele>149.62</ele>
        <time>2016-04-10T08:12:42Z</time>
      </trkpt>
      <trkpt lat="50.10737" lon="3.62184">
        <ele>149.62</ele>
        <time>2016-04-10T08:12:43Z</time>
      </trkpt>
      <trkpt lat="50.10738" lon="3.62187">
        <ele>149.62</ele>
        <time>2016-04-10T08:12:44Z</time>
      </trkpt>
      <trkpt lat="50.10739" lon="3.6219">
        <ele>149.62</ele>
        <time>2016-04-10T08:12:45Z</time>
      </trkpt>
      <trkpt lat="50.10741" lon="3.62192">
        <ele>149.62</ele>
        <time>2016-04-10T08:12:46Z</time>
      </trkpt>
      <trkpt lat="50.10742" lon="3.62195">
        <ele>149.62</ele>
        <time>2016-04-10T08:12:47Z</time>
      </trkpt>
      <trkpt lat="50.10768" lon="3.62229">
        <ele>149.62</ele>
        <time>2016-04-10T08:13:00Z</time>
      </trkpt>
      <trkpt lat="50.10795" lon="3.62252">
        <ele>149.62</ele>
        <time>2016-04-10T08:13:11Z</time>
      </trkpt>
      <trkpt lat="50.10826" lon="3.62257">
        <ele>148.66</ele>
        <time>2016-04-10T08:13:23Z</time>
      </trkpt>
      <trkpt lat="50.10863" lon="3.62256">
        <ele>147.7</ele>
        <time>2016-04-10T08:13:36Z</time>
      </trkpt>
      <trkpt lat="50.10892" lon="3.62256">
        <ele>146.26</ele>
        <time>2016-04-10T08:13:46Z</time>
      </trkpt>
      <trkpt lat="50.10926" lon="3.62256">
        <ele>144.82</ele>
        <time>2016-04-10T08:13:58Z</time>
      </trkpt>
      <trkpt lat="50.10958" lon="3.62257">
        <ele>142.41</ele>
        <time>2016-04-10T08:14:09Z</time>
      </trkpt>
      <trkpt lat="50.1099" lon="3.62259">
        <ele>141.45</ele>
        <time>2016-04-10T08:14:20Z</time>
      </trkpt>
      <trkpt lat="50.11004" lon="3.62256">
        <ele>141.45</ele>
        <time>2016-04-10T08:14:26Z</time>
      </trkpt>
      <trkpt lat="50.11005" lon="3.62254">
        <ele>141.45</ele>
        <time>2016-04-10T08:14:27Z</time>
      </trkpt>
      <trkpt lat="50.11007" lon="3.62252">
        <ele>141.45</ele>
        <time>2016-04-10T08:14:28Z</time>
      </trkpt>
      <trkpt lat="50.11015" lon="3.62236">
        <ele>140.97</ele>
        <time>2016-04-10T08:14:38Z</time>
      </trkpt>
      <trkpt lat="50.11019" lon="3.62228">
        <ele>140.97</ele>
        <time>2016-04-10T08:14:41Z</time>
      </trkpt>
      <trkpt lat="50.1102" lon="3.62227">
        <ele>140.97</ele>
        <time>2016-04-10T08:14:42Z</time>
      </trkpt>
      <trkpt lat="50.11022" lon="3.62226">
        <ele>140.97</ele>
        <time>2016-04-10T08:14:43Z</time>
      </trkpt>
      <trkpt lat="50.11028" lon="3.62223">
        <ele>140.97</ele>
        <time>2016-04-10T08:14:46Z</time>
      </trkpt>
      <trkpt lat="50.1103" lon="3.62223">
        <ele>140.97</ele>
        <time>2016-04-10T08:14:48Z</time>
      </trkpt>
      <trkpt lat="50.11032" lon="3.62229">
        <ele>140.97</ele>
        <time>2016-04-10T08:14:50Z</time>
      </trkpt>
      <trkpt lat="50.11034" lon="3.6223">
        <ele>140.97</ele>
        <time>2016-04-10T08:14:51Z</time>
      </trkpt>
      <trkpt lat="50.11036" lon="3.62231">
        <ele>140.97</ele>
        <time>2016-04-10T08:14:52Z</time>
      </trkpt>
      <trkpt lat="50.11038" lon="3.62232">
        <ele>140.97</ele>
        <time>2016-04-10T08:14:53Z</time>
      </trkpt>
      <trkpt lat="50.1104" lon="3.62233">
        <ele>140.97</ele>
        <time>2016-04-10T08:14:54Z</time>
      </trkpt>
      <trkpt lat="50.11042" lon="3.62234">
        <ele>140.97</ele>
        <time>2016-04-10T08:14:55Z</time>
      </trkpt>
      <trkpt lat="50.11044" lon="3.62236">
        <ele>140.97</ele>
        <time>2016-04-10T08:14:56Z</time>
      </trkpt>
      <trkpt lat="50.11046" lon="3.62238">
        <ele>140.97</ele>
        <time>2016-04-10T08:14:57Z</time>
      </trkpt>
      <trkpt lat="50.11047" lon="3.62239">
        <ele>140.97</ele>
        <time>2016-04-10T08:14:58Z</time>
      </trkpt>
      <trkpt lat="50.1106" lon="3.62259">
        <ele>140.97</ele>
        <time>2016-04-10T08:15:06Z</time>
      </trkpt>
      <trkpt lat="50.11061" lon="3.62263">
        <ele>140.97</ele>
        <time>2016-04-10T08:15:08Z</time>
      </trkpt>
      <trkpt lat="50.1106" lon="3.62276">
        <ele>140.97</ele>
        <time>2016-04-10T08:15:13Z</time>
      </trkpt>
      <trkpt lat="50.11059" lon="3.62291">
        <ele>140.97</ele>
        <time>2016-04-10T08:15:18Z</time>
      </trkpt>
      <trkpt lat="50.11058" lon="3.62307">
        <ele>140.97</ele>
        <time>2016-04-10T08:15:23Z</time>
      </trkpt>
      <trkpt lat="50.11057" lon="3.62332">
        <ele>140.97</ele>
        <time>2016-04-10T08:15:31Z</time>
      </trkpt>
      <trkpt lat="50.11054" lon="3.62346">
        <ele>140.97</ele>
        <time>2016-04-10T08:15:36Z</time>
      </trkpt>
      <trkpt lat="50.11054" lon="3.62362">
        <ele>140.97</ele>
        <time>2016-04-10T08:15:40Z</time>
      </trkpt>
      <trkpt lat="50.11054" lon="3.62369">
        <ele>140.97</ele>
        <time>2016-04-10T08:15:42Z</time>
      </trkpt>
      <trkpt lat="50.11049" lon="3.62391">
        <ele>140.97</ele>
        <time>2016-04-10T08:15:48Z</time>
      </trkpt>
      <trkpt lat="50.11042" lon="3.62442">
        <ele>140.97</ele>
        <time>2016-04-10T08:15:59Z</time>
      </trkpt>
      <trkpt lat="50.11039" lon="3.6248">
        <ele>140.97</ele>
        <time>2016-04-10T08:16:09Z</time>
      </trkpt>
      <trkpt lat="50.11037" lon="3.62498">
        <ele>140.97</ele>
        <time>2016-04-10T08:16:14Z</time>
      </trkpt>
      <trkpt lat="50.11028" lon="3.62542">
        <ele>140.97</ele>
        <time>2016-04-10T08:16:24Z</time>
      </trkpt>
      <trkpt lat="50.1102" lon="3.62573">
        <ele>141.45</ele>
        <time>2016-04-10T08:16:30Z</time>
      </trkpt>
      <trkpt lat="50.1101" lon="3.62628">
        <ele>141.45</ele>
        <time>2016-04-10T08:16:41Z</time>
      </trkpt>
      <trkpt lat="50.11007" lon="3.62642">
        <ele>141.45</ele>
        <time>2016-04-10T08:16:44Z</time>
      </trkpt>
      <trkpt lat="50.11003" lon="3.6267">
        <ele>141.45</ele>
        <time>2016-04-10T08:16:50Z</time>
      </trkpt>
      <trkpt lat="50.11008" lon="3.62713">
        <ele>141.45</ele>
        <time>2016-04-10T08:16:59Z</time>
      </trkpt>
      <trkpt lat="50.11019" lon="3.62759">
        <ele>141.45</ele>
        <time>2016-04-10T08:17:11Z</time>
      </trkpt>
      <trkpt lat="50.11031" lon="3.62809">
        <ele>141.45</ele>
        <time>2016-04-10T08:17:22Z</time>
      </trkpt>
      <trkpt lat="50.11037" lon="3.62847">
        <ele>141.45</ele>
        <time>2016-04-10T08:17:30Z</time>
      </trkpt>
      <trkpt lat="50.11029" lon="3.62903">
        <ele>142.89</ele>
        <time>2016-04-10T08:17:43Z</time>
      </trkpt>
      <trkpt lat="50.11014" lon="3.62963">
        <ele>142.89</ele>
        <time>2016-04-10T08:17:54Z</time>
      </trkpt>
      <trkpt lat="50.11005" lon="3.63025">
        <ele>142.89</ele>
        <time>2016-04-10T08:18:04Z</time>
      </trkpt>
      <trkpt lat="50.11002" lon="3.63073">
        <ele>142.89</ele>
        <time>2016-04-10T08:18:11Z</time>
      </trkpt>
      <trkpt lat="50.11004" lon="3.63113">
        <ele>142.89</ele>
        <time>2016-04-10T08:18:17Z</time>
      </trkpt>
      <trkpt lat="50.11" lon="3.63165">
        <ele>142.89</ele>
        <time>2016-04-10T08:18:26Z</time>
      </trkpt>
      <trkpt lat="50.1101" lon="3.63249">
        <ele>142.89</ele>
        <time>2016-04-10T08:18:39Z</time>
      </trkpt>
      <trkpt lat="50.11014" lon="3.63271">
        <ele>142.89</ele>
        <time>2016-04-10T08:18:44Z</time>
      </trkpt>
      <trkpt lat="50.11021" lon="3.63271">
        <ele>143.85</ele>
        <time>2016-04-10T08:18:50Z</time>
      </trkpt>
      <trkpt lat="50.11033" lon="3.63257">
        <ele>144.34</ele>
        <time>2016-04-10T08:18:59Z</time>
      </trkpt>
      <trkpt lat="50.11042" lon="3.63248">
        <ele>144.82</ele>
        <time>2016-04-10T08:19:04Z</time>
      </trkpt>
      <trkpt lat="50.11062" lon="3.63213">
        <ele>145.78</ele>
        <time>2016-04-10T08:19:17Z</time>
      </trkpt>
      <trkpt lat="50.11071" lon="3.63197">
        <ele>146.26</ele>
        <time>2016-04-10T08:19:23Z</time>
      </trkpt>
      <trkpt lat="50.11078" lon="3.63184">
        <ele>146.26</ele>
        <time>2016-04-10T08:19:27Z</time>
      </trkpt>
      <trkpt lat="50.11086" lon="3.63167">
        <ele>146.26</ele>
        <time>2016-04-10T08:19:32Z</time>
      </trkpt>
      <trkpt lat="50.11103" lon="3.6314">
        <ele>146.74</ele>
        <time>2016-04-10T08:19:44Z</time>
      </trkpt>
      <trkpt lat="50.11108" lon="3.6313">
        <ele>147.22</ele>
        <time>2016-04-10T08:19:48Z</time>
      </trkpt>
      <trkpt lat="50.11127" lon="3.63098">
        <ele>147.7</ele>
        <time>2016-04-10T08:20:00Z</time>
      </trkpt>
      <trkpt lat="50.11144" lon="3.6307">
        <ele>148.66</ele>
        <time>2016-04-10T08:20:11Z</time>
      </trkpt>
      <trkpt lat="50.11163" lon="3.6303">
        <ele>149.14</ele>
        <time>2016-04-10T08:20:23Z</time>
      </trkpt>
      <trkpt lat="50.11169" lon="3.63016">
        <ele>149.14</ele>
        <time>2016-04-10T08:20:28Z</time>
      </trkpt>
      <trkpt lat="50.11182" lon="3.6299">
        <ele>149.14</ele>
        <time>2016-04-10T08:20:36Z</time>
      </trkpt>
      <trkpt lat="50.11208" lon="3.62942">
        <ele>147.7</ele>
        <time>2016-04-10T08:20:48Z</time>
      </trkpt>
      <trkpt lat="50.11228" lon="3.62906">
        <ele>146.74</ele>
        <time>2016-04-10T08:20:57Z</time>
      </trkpt>
      <trkpt lat="50.11251" lon="3.62859">
        <ele>144.82</ele>
        <time>2016-04-10T08:21:08Z</time>
      </trkpt>
      <trkpt lat="50.11272" lon="3.62823">
        <ele>144.34</ele>
        <time>2016-04-10T08:21:18Z</time>
      </trkpt>
      <trkpt lat="50.11285" lon="3.62794">
        <ele>143.85</ele>
        <time>2016-04-10T08:21:27Z</time>
      </trkpt>
      <trkpt lat="50.11288" lon="3.62787">
        <ele>143.85</ele>
        <time>2016-04-10T08:21:30Z</time>
      </trkpt>
      <trkpt lat="50.11292" lon="3.62774">
        <ele>143.85</ele>
        <time>2016-04-10T08:21:35Z</time>
      </trkpt>
      <trkpt lat="50.11297" lon="3.6276">
        <ele>143.85</ele>
        <time>2016-04-10T08:21:40Z</time>
      </trkpt>
      <trkpt lat="50.113" lon="3.62757">
        <ele>143.85</ele>
        <time>2016-04-10T08:21:42Z</time>
      </trkpt>
      <trkpt lat="50.11312" lon="3.62739">
        <ele>145.78</ele>
        <time>2016-04-10T08:21:50Z</time>
      </trkpt>
      <trkpt lat="50.11315" lon="3.62734">
        <ele>145.78</ele>
        <time>2016-04-10T08:21:52Z</time>
      </trkpt>
      <trkpt lat="50.11334" lon="3.62706">
        <ele>146.74</ele>
        <time>2016-04-10T08:22:03Z</time>
      </trkpt>
      <trkpt lat="50.11341" lon="3.62693">
        <ele>146.74</ele>
        <time>2016-04-10T08:22:08Z</time>
      </trkpt>
      <trkpt lat="50.11359" lon="3.62656">
        <ele>147.22</ele>
        <time>2016-04-10T08:22:20Z</time>
      </trkpt>
      <trkpt lat="50.11362" lon="3.62651">
        <ele>147.22</ele>
        <time>2016-04-10T08:22:22Z</time>
      </trkpt>
      <trkpt lat="50.11372" lon="3.6263">
        <ele>147.22</ele>
        <time>2016-04-10T08:22:29Z</time>
      </trkpt>
      <trkpt lat="50.11381" lon="3.62614">
        <ele>147.22</ele>
        <time>2016-04-10T08:22:36Z</time>
      </trkpt>
      <trkpt lat="50.11392" lon="3.62588">
        <ele>147.22</ele>
        <time>2016-04-10T08:22:43Z</time>
      </trkpt>
      <trkpt lat="50.11427" lon="3.62525">
        <ele>146.26</ele>
        <time>2016-04-10T08:22:57Z</time>
      </trkpt>
      <trkpt lat="50.11451" lon="3.62487">
        <ele>146.26</ele>
        <time>2016-04-10T08:23:08Z</time>
      </trkpt>
      <trkpt lat="50.11467" lon="3.62459">
        <ele>147.7</ele>
        <time>2016-04-10T08:23:20Z</time>
      </trkpt>
      <trkpt lat="50.11468" lon="3.62457">
        <ele>147.7</ele>
        <time>2016-04-10T08:23:21Z</time>
      </trkpt>
      <trkpt lat="50.11482" lon="3.6243">
        <ele>149.62</ele>
        <time>2016-04-10T08:23:34Z</time>
      </trkpt>
      <trkpt lat="50.11485" lon="3.62426">
        <ele>150.1</ele>
        <time>2016-04-10T08:23:36Z</time>
      </trkpt>
      <trkpt lat="50.11487" lon="3.62423">
        <ele>150.58</ele>
        <time>2016-04-10T08:23:38Z</time>
      </trkpt>
      <trkpt lat="50.115" lon="3.62395">
        <ele>151.54</ele>
        <time>2016-04-10T08:23:52Z</time>
      </trkpt>
      <trkpt lat="50.11504" lon="3.62387">
        <ele>152.03</ele>
        <time>2016-04-10T08:23:56Z</time>
      </trkpt>
      <trkpt lat="50.11506" lon="3.62382">
        <ele>152.51</ele>
        <time>2016-04-10T08:23:58Z</time>
      </trkpt>
      <trkpt lat="50.1151" lon="3.62376">
        <ele>152.51</ele>
        <time>2016-04-10T08:24:01Z</time>
      </trkpt>
      <trkpt lat="50.11516" lon="3.62371">
        <ele>152.51</ele>
        <time>2016-04-10T08:24:05Z</time>
      </trkpt>
      <trkpt lat="50.11524" lon="3.62369">
        <ele>152.51</ele>
        <time>2016-04-10T08:24:10Z</time>
      </trkpt>
      <trkpt lat="50.11546" lon="3.62374">
        <ele>152.51</ele>
        <time>2016-04-10T08:24:22Z</time>
      </trkpt>
      <trkpt lat="50.11572" lon="3.62366">
        <ele>152.99</ele>
        <time>2016-04-10T08:24:33Z</time>
      </trkpt>
      <trkpt lat="50.11604" lon="3.62347">
        <ele>152.51</ele>
        <time>2016-04-10T08:24:43Z</time>
      </trkpt>
      <trkpt lat="50.11631" lon="3.62324">
        <ele>152.51</ele>
        <time>2016-04-10T08:24:52Z</time>
      </trkpt>
      <trkpt lat="50.11659" lon="3.62282">
        <ele>152.51</ele>
        <time>2016-04-10T08:25:03Z</time>
      </trkpt>
      <trkpt lat="50.11687" lon="3.62233">
        <ele>152.51</ele>
        <time>2016-04-10T08:25:15Z</time>
      </trkpt>
      <trkpt lat="50.11713" lon="3.62204">
        <ele>152.51</ele>
        <time>2016-04-10T08:25:24Z</time>
      </trkpt>
      <trkpt lat="50.11755" lon="3.62177">
        <ele>154.43</ele>
        <time>2016-04-10T08:25:36Z</time>
      </trkpt>
      <trkpt lat="50.11786" lon="3.62155">
        <ele>154.91</ele>
        <time>2016-04-10T08:25:45Z</time>
      </trkpt>
      <trkpt lat="50.1182" lon="3.62131">
        <ele>156.35</ele>
        <time>2016-04-10T08:25:56Z</time>
      </trkpt>
      <trkpt lat="50.11849" lon="3.62112">
        <ele>157.79</ele>
        <time>2016-04-10T08:26:07Z</time>
      </trkpt>
      <trkpt lat="50.1188" lon="3.62089">
        <ele>159.24</ele>
        <time>2016-04-10T08:26:20Z</time>
      </trkpt>
      <trkpt lat="50.11906" lon="3.62073">
        <ele>159.72</ele>
        <time>2016-04-10T08:26:32Z</time>
      </trkpt>
      <trkpt lat="50.11916" lon="3.62067">
        <ele>160.2</ele>
        <time>2016-04-10T08:26:37Z</time>
      </trkpt>
      <trkpt lat="50.11941" lon="3.6205">
        <ele>161.16</ele>
        <time>2016-04-10T08:26:48Z</time>
      </trkpt>
      <trkpt lat="50.11968" lon="3.62032">
        <ele>162.6</ele>
        <time>2016-04-10T08:26:59Z</time>
      </trkpt>
      <trkpt lat="50.11999" lon="3.6201">
        <ele>163.08</ele>
        <time>2016-04-10T08:27:12Z</time>
      </trkpt>
      <trkpt lat="50.12008" lon="3.62002">
        <ele>163.08</ele>
        <time>2016-04-10T08:27:16Z</time>
      </trkpt>
      <trkpt lat="50.12025" lon="3.6201">
        <ele>163.56</ele>
        <time>2016-04-10T08:27:24Z</time>
      </trkpt>
      <trkpt lat="50.12032" lon="3.62017">
        <ele>163.56</ele>
        <time>2016-04-10T08:27:29Z</time>
      </trkpt>
      <trkpt lat="50.12036" lon="3.6202">
        <ele>164.04</ele>
        <time>2016-04-10T08:27:32Z</time>
      </trkpt>
      <trkpt lat="50.12053" lon="3.62054">
        <ele>164.04</ele>
        <time>2016-04-10T08:27:46Z</time>
      </trkpt>
      <trkpt lat="50.12084" lon="3.62085">
        <ele>164.04</ele>
        <time>2016-04-10T08:27:59Z</time>
      </trkpt>
      <trkpt lat="50.12108" lon="3.62113">
        <ele>163.08</ele>
        <time>2016-04-10T08:28:08Z</time>
      </trkpt>
      <trkpt lat="50.12158" lon="3.62167">
        <ele>160.2</ele>
        <time>2016-04-10T08:28:22Z</time>
      </trkpt>
      <trkpt lat="50.12173" lon="3.62184">
        <ele>158.75</ele>
        <time>2016-04-10T08:28:25Z</time>
      </trkpt>
      <trkpt lat="50.1219" lon="3.62204">
        <ele>157.31</ele>
        <time>2016-04-10T08:28:28Z</time>
      </trkpt>
      <trkpt lat="50.12246" lon="3.62265">
        <ele>158.75</ele>
        <time>2016-04-10T08:28:40Z</time>
      </trkpt>
      <trkpt lat="50.12291" lon="3.62312">
        <ele>160.68</ele>
        <time>2016-04-10T08:28:53Z</time>
      </trkpt>
      <trkpt lat="50.12324" lon="3.62349">
        <ele>160.68</ele>
        <time>2016-04-10T08:29:05Z</time>
      </trkpt>
      <trkpt lat="50.12361" lon="3.6239">
        <ele>161.16</ele>
        <time>2016-04-10T08:29:18Z</time>
      </trkpt>
      <trkpt lat="50.12402" lon="3.62435">
        <ele>158.27</ele>
        <time>2016-04-10T08:29:29Z</time>
      </trkpt>
      <trkpt lat="50.12437" lon="3.62474">
        <ele>157.79</ele>
        <time>2016-04-10T08:29:37Z</time>
      </trkpt>
      <trkpt lat="50.12459" lon="3.62497">
        <ele>158.75</ele>
        <time>2016-04-10T08:29:42Z</time>
      </trkpt>
      <trkpt lat="50.12507" lon="3.6255">
        <ele>162.6</ele>
        <time>2016-04-10T08:29:54Z</time>
      </trkpt>
      <trkpt lat="50.12511" lon="3.62554">
        <ele>162.6</ele>
        <time>2016-04-10T08:29:55Z</time>
      </trkpt>
      <trkpt lat="50.12545" lon="3.62595">
        <ele>164.52</ele>
        <time>2016-04-10T08:30:07Z</time>
      </trkpt>
      <trkpt lat="50.12572" lon="3.62624">
        <ele>165.48</ele>
        <time>2016-04-10T08:30:20Z</time>
      </trkpt>
      <trkpt lat="50.12599" lon="3.62652">
        <ele>166.45</ele>
        <time>2016-04-10T08:30:34Z</time>
      </trkpt>
      <trkpt lat="50.12627" lon="3.62683">
        <ele>167.89</ele>
        <time>2016-04-10T08:30:48Z</time>
      </trkpt>
      <trkpt lat="50.1266" lon="3.62715">
        <ele>168.37</ele>
        <time>2016-04-10T08:31:03Z</time>
      </trkpt>
      <trkpt lat="50.12681" lon="3.62739">
        <ele>168.85</ele>
        <time>2016-04-10T08:31:14Z</time>
      </trkpt>
      <trkpt lat="50.12707" lon="3.62769">
        <ele>168.85</ele>
        <time>2016-04-10T08:31:27Z</time>
      </trkpt>
      <trkpt lat="50.12711" lon="3.62772">
        <ele>168.85</ele>
        <time>2016-04-10T08:31:29Z</time>
      </trkpt>
      <trkpt lat="50.12721" lon="3.62759">
        <ele>168.37</ele>
        <time>2016-04-10T08:31:35Z</time>
      </trkpt>
      <trkpt lat="50.12742" lon="3.62723">
        <ele>168.85</ele>
        <time>2016-04-10T08:31:48Z</time>
      </trkpt>
      <trkpt lat="50.12752" lon="3.62691">
        <ele>169.33</ele>
        <time>2016-04-10T08:31:58Z</time>
      </trkpt>
      <trkpt lat="50.12756" lon="3.62664">
        <ele>169.81</ele>
        <time>2016-04-10T08:32:06Z</time>
      </trkpt>
      <trkpt lat="50.12752" lon="3.62651">
        <ele>169.81</ele>
        <time>2016-04-10T08:32:10Z</time>
      </trkpt>
      <trkpt lat="50.1273" lon="3.62601">
        <ele>169.81</ele>
        <time>2016-04-10T08:32:25Z</time>
      </trkpt>
      <trkpt lat="50.12723" lon="3.62566">
        <ele>168.37</ele>
        <time>2016-04-10T08:32:33Z</time>
      </trkpt>
      <trkpt lat="50.12725" lon="3.62526">
        <ele>167.89</ele>
        <time>2016-04-10T08:32:43Z</time>
      </trkpt>
      <trkpt lat="50.12728" lon="3.62472">
        <ele>166.93</ele>
        <time>2016-04-10T08:32:54Z</time>
      </trkpt>
      <trkpt lat="50.12734" lon="3.62432">
        <ele>166.45</ele>
        <time>2016-04-10T08:33:05Z</time>
      </trkpt>
      <trkpt lat="50.12744" lon="3.62391">
        <ele>166.45</ele>
        <time>2016-04-10T08:33:15Z</time>
      </trkpt>
      <trkpt lat="50.12751" lon="3.62351">
        <ele>166.45</ele>
        <time>2016-04-10T08:33:26Z</time>
      </trkpt>
      <trkpt lat="50.12759" lon="3.6228">
        <ele>166.45</ele>
        <time>2016-04-10T08:33:40Z</time>
      </trkpt>
      <trkpt lat="50.12768" lon="3.62228">
        <ele>166.45</ele>
        <time>2016-04-10T08:33:51Z</time>
      </trkpt>
      <trkpt lat="50.12771" lon="3.62212">
        <ele>167.41</ele>
        <time>2016-04-10T08:33:54Z</time>
      </trkpt>
      <trkpt lat="50.12786" lon="3.62147">
        <ele>167.41</ele>
        <time>2016-04-10T08:34:08Z</time>
      </trkpt>
      <trkpt lat="50.12797" lon="3.62088">
        <ele>167.41</ele>
        <time>2016-04-10T08:34:22Z</time>
      </trkpt>
      <trkpt lat="50.12807" lon="3.62035">
        <ele>167.89</ele>
        <time>2016-04-10T08:34:36Z</time>
      </trkpt>
      <trkpt lat="50.12815" lon="3.61988">
        <ele>167.41</ele>
        <time>2016-04-10T08:34:48Z</time>
      </trkpt>
      <trkpt lat="50.12823" lon="3.61939">
        <ele>167.41</ele>
        <time>2016-04-10T08:35:00Z</time>
      </trkpt>
      <trkpt lat="50.12824" lon="3.61929">
        <ele>167.41</ele>
        <time>2016-04-10T08:35:03Z</time>
      </trkpt>
      <trkpt lat="50.1283" lon="3.61898">
        <ele>166.45</ele>
        <time>2016-04-10T08:35:10Z</time>
      </trkpt>
      <trkpt lat="50.12835" lon="3.61841">
        <ele>165.48</ele>
        <time>2016-04-10T08:35:22Z</time>
      </trkpt>
      <trkpt lat="50.12837" lon="3.61785">
        <ele>165</ele>
        <time>2016-04-10T08:35:32Z</time>
      </trkpt>
      <trkpt lat="50.12845" lon="3.61707">
        <ele>165</ele>
        <time>2016-04-10T08:35:46Z</time>
      </trkpt>
      <trkpt lat="50.12853" lon="3.61646">
        <ele>165</ele>
        <time>2016-04-10T08:35:57Z</time>
      </trkpt>
      <trkpt lat="50.12859" lon="3.61579">
        <ele>165</ele>
        <time>2016-04-10T08:36:10Z</time>
      </trkpt>
      <trkpt lat="50.12866" lon="3.61528">
        <ele>165</ele>
        <time>2016-04-10T08:36:22Z</time>
      </trkpt>
      <trkpt lat="50.12874" lon="3.61491">
        <ele>165</ele>
        <time>2016-04-10T08:36:33Z</time>
      </trkpt>
      <trkpt lat="50.12887" lon="3.61453">
        <ele>164.52</ele>
        <time>2016-04-10T08:36:44Z</time>
      </trkpt>
      <trkpt lat="50.12897" lon="3.61445">
        <ele>164.04</ele>
        <time>2016-04-10T08:36:49Z</time>
      </trkpt>
      <trkpt lat="50.12923" lon="3.61405">
        <ele>162.12</ele>
        <time>2016-04-10T08:37:00Z</time>
      </trkpt>
      <trkpt lat="50.12932" lon="3.61388">
        <ele>162.12</ele>
        <time>2016-04-10T08:37:05Z</time>
      </trkpt>
      <trkpt lat="50.1295" lon="3.6136">
        <ele>161.64</ele>
        <time>2016-04-10T08:37:17Z</time>
      </trkpt>
      <trkpt lat="50.12952" lon="3.61355">
        <ele>161.64</ele>
        <time>2016-04-10T08:37:19Z</time>
      </trkpt>
      <trkpt lat="50.12956" lon="3.61345">
        <ele>161.64</ele>
        <time>2016-04-10T08:37:23Z</time>
      </trkpt>
      <trkpt lat="50.12962" lon="3.61334">
        <ele>161.64</ele>
        <time>2016-04-10T08:37:27Z</time>
      </trkpt>
      <trkpt lat="50.12981" lon="3.61315">
        <ele>161.64</ele>
        <time>2016-04-10T08:37:38Z</time>
      </trkpt>
      <trkpt lat="50.12996" lon="3.613">
        <ele>160.2</ele>
        <time>2016-04-10T08:37:43Z</time>
      </trkpt>
      <trkpt lat="50.13024" lon="3.61255">
        <ele>159.24</ele>
        <time>2016-04-10T08:37:56Z</time>
      </trkpt>
      <trkpt lat="50.13033" lon="3.61244">
        <ele>158.75</ele>
        <time>2016-04-10T08:38:04Z</time>
      </trkpt>
      <trkpt lat="50.13042" lon="3.61224">
        <ele>158.75</ele>
        <time>2016-04-10T08:38:15Z</time>
      </trkpt>
      <trkpt lat="50.13048" lon="3.61203">
        <ele>158.75</ele>
        <time>2016-04-10T08:38:28Z</time>
      </trkpt>
      <trkpt lat="50.1305" lon="3.61197">
        <ele>158.75</ele>
        <time>2016-04-10T08:38:30Z</time>
      </trkpt>
      <trkpt lat="50.13041" lon="3.61156">
        <ele>158.75</ele>
        <time>2016-04-10T08:38:43Z</time>
      </trkpt>
      <trkpt lat="50.1303" lon="3.61122">
        <ele>158.75</ele>
        <time>2016-04-10T08:38:54Z</time>
      </trkpt>
      <trkpt lat="50.13021" lon="3.61092">
        <ele>158.27</ele>
        <time>2016-04-10T08:39:04Z</time>
      </trkpt>
      <trkpt lat="50.13015" lon="3.61073">
        <ele>158.27</ele>
        <time>2016-04-10T08:39:10Z</time>
      </trkpt>
      <trkpt lat="50.12999" lon="3.61026">
        <ele>158.27</ele>
        <time>2016-04-10T08:39:22Z</time>
      </trkpt>
      <trkpt lat="50.12985" lon="3.60979">
        <ele>157.79</ele>
        <time>2016-04-10T08:39:33Z</time>
      </trkpt>
      <trkpt lat="50.12971" lon="3.60942">
        <ele>156.83</ele>
        <time>2016-04-10T08:39:43Z</time>
      </trkpt>
      <trkpt lat="50.1296" lon="3.60909">
        <ele>155.39</ele>
        <time>2016-04-10T08:39:51Z</time>
      </trkpt>
      <trkpt lat="50.12942" lon="3.60863">
        <ele>153.47</ele>
        <time>2016-04-10T08:40:01Z</time>
      </trkpt>
      <trkpt lat="50.12918" lon="3.60814">
        <ele>152.03</ele>
        <time>2016-04-10T08:40:12Z</time>
      </trkpt>
      <trkpt lat="50.12902" lon="3.60784">
        <ele>152.03</ele>
        <time>2016-04-10T08:40:20Z</time>
      </trkpt>
      <trkpt lat="50.12902" lon="3.60779">
        <ele>151.54</ele>
        <time>2016-04-10T08:40:21Z</time>
      </trkpt>
      <trkpt lat="50.12902" lon="3.60774">
        <ele>151.54</ele>
        <time>2016-04-10T08:40:22Z</time>
      </trkpt>
      <trkpt lat="50.12901" lon="3.6077">
        <ele>151.54</ele>
        <time>2016-04-10T08:40:23Z</time>
      </trkpt>
      <trkpt lat="50.129" lon="3.60766">
        <ele>151.54</ele>
        <time>2016-04-10T08:40:24Z</time>
      </trkpt>
      <trkpt lat="50.1288" lon="3.60734">
        <ele>151.06</ele>
        <time>2016-04-10T08:40:36Z</time>
      </trkpt>
      <trkpt lat="50.12863" lon="3.60698">
        <ele>151.06</ele>
        <time>2016-04-10T08:40:48Z</time>
      </trkpt>
      <trkpt lat="50.12855" lon="3.60684">
        <ele>151.06</ele>
        <time>2016-04-10T08:40:53Z</time>
      </trkpt>
      <trkpt lat="50.12852" lon="3.60682">
        <ele>151.06</ele>
        <time>2016-04-10T08:40:54Z</time>
      </trkpt>
      <trkpt lat="50.12842" lon="3.60685">
        <ele>152.51</ele>
        <time>2016-04-10T08:40:58Z</time>
      </trkpt>
      <trkpt lat="50.12807" lon="3.60709">
        <ele>152.51</ele>
        <time>2016-04-10T08:41:12Z</time>
      </trkpt>
      <trkpt lat="50.12799" lon="3.60714">
        <ele>152.51</ele>
        <time>2016-04-10T08:41:15Z</time>
      </trkpt>
      <trkpt lat="50.12796" lon="3.60714">
        <ele>152.51</ele>
        <time>2016-04-10T08:41:16Z</time>
      </trkpt>
      <trkpt lat="50.12793" lon="3.60712">
        <ele>152.51</ele>
        <time>2016-04-10T08:41:17Z</time>
      </trkpt>
      <trkpt lat="50.12791" lon="3.6071">
        <ele>152.51</ele>
        <time>2016-04-10T08:41:18Z</time>
      </trkpt>
      <trkpt lat="50.12789" lon="3.60708">
        <ele>152.51</ele>
        <time>2016-04-10T08:41:19Z</time>
      </trkpt>
      <trkpt lat="50.12779" lon="3.607">
        <ele>152.51</ele>
        <time>2016-04-10T08:41:24Z</time>
      </trkpt>
      <trkpt lat="50.12774" lon="3.607">
        <ele>152.99</ele>
        <time>2016-04-10T08:41:34Z</time>
      </trkpt>
      <trkpt lat="50.12774" lon="3.60701">
        <ele>152.99</ele>
        <time>2016-04-10T08:42:01Z</time>
      </trkpt>
      <trkpt lat="50.12774" lon="3.60696">
        <ele>152.99</ele>
        <time>2016-04-10T08:42:25Z</time>
      </trkpt>
      <trkpt lat="50.12775" lon="3.60698">
        <ele>152.99</ele>
        <time>2016-04-10T08:42:59Z</time>
      </trkpt>
      <trkpt lat="50.12776" lon="3.60696">
        <ele>152.99</ele>
        <time>2016-04-10T08:43:25Z</time>
      </trkpt>
      <trkpt lat="50.12774" lon="3.60695">
        <ele>152.99</ele>
        <time>2016-04-10T08:43:52Z</time>
      </trkpt>
      <trkpt lat="50.12776" lon="3.607">
        <ele>152.99</ele>
        <time>2016-04-10T08:44:16Z</time>
      </trkpt>
      <trkpt lat="50.12776" lon="3.60701">
        <ele>152.99</ele>
        <time>2016-04-10T08:44:38Z</time>
      </trkpt>
      <trkpt lat="50.12773" lon="3.60695">
        <ele>152.99</ele>
        <time>2016-04-10T08:45:08Z</time>
      </trkpt>
      <trkpt lat="50.12775" lon="3.60698">
        <ele>152.99</ele>
        <time>2016-04-10T08:45:34Z</time>
      </trkpt>
      <trkpt lat="50.12776" lon="3.60699">
        <ele>152.99</ele>
        <time>2016-04-10T08:45:58Z</time>
      </trkpt>
      <trkpt lat="50.12773" lon="3.60702">
        <ele>152.99</ele>
        <time>2016-04-10T08:46:20Z</time>
      </trkpt>
      <trkpt lat="50.12772" lon="3.60696">
        <ele>152.99</ele>
        <time>2016-04-10T08:46:46Z</time>
      </trkpt>
      <trkpt lat="50.12774" lon="3.607">
        <ele>152.99</ele>
        <time>2016-04-10T08:47:11Z</time>
      </trkpt>
      <trkpt lat="50.1277" lon="3.60696">
        <ele>152.99</ele>
        <time>2016-04-10T08:47:43Z</time>
      </trkpt>
      <trkpt lat="50.1277" lon="3.60694">
        <ele>152.99</ele>
        <time>2016-04-10T08:48:10Z</time>
      </trkpt>
      <trkpt lat="50.1277" lon="3.60697">
        <ele>152.99</ele>
        <time>2016-04-10T08:48:37Z</time>
      </trkpt>
      <trkpt lat="50.12773" lon="3.60698">
        <ele>152.99</ele>
        <time>2016-04-10T08:49:05Z</time>
      </trkpt>
      <trkpt lat="50.12772" lon="3.60701">
        <ele>152.99</ele>
        <time>2016-04-10T08:49:32Z</time>
      </trkpt>
      <trkpt lat="50.12769" lon="3.607">
        <ele>153.47</ele>
        <time>2016-04-10T08:49:57Z</time>
      </trkpt>
      <trkpt lat="50.12769" lon="3.60695">
        <ele>153.95</ele>
        <time>2016-04-10T08:50:01Z</time>
      </trkpt>
      <trkpt lat="50.12769" lon="3.60695">
        <ele>153.95</ele>
        <time>2016-04-10T08:50:15Z</time>
      </trkpt>
      <trkpt lat="50.12768" lon="3.60695">
        <ele>153.47</ele>
        <time>2016-04-10T08:50:39Z</time>
      </trkpt>
      <trkpt lat="50.12769" lon="3.6069">
        <ele>153.95</ele>
        <time>2016-04-10T08:50:56Z</time>
      </trkpt>
      <trkpt lat="50.12767" lon="3.60691">
        <ele>153.95</ele>
        <time>2016-04-10T08:51:19Z</time>
      </trkpt>
      <trkpt lat="50.12768" lon="3.60694">
        <ele>153.95</ele>
        <time>2016-04-10T08:51:41Z</time>
      </trkpt>
      <trkpt lat="50.12768" lon="3.6069">
        <ele>153.95</ele>
        <time>2016-04-10T08:51:50Z</time>
      </trkpt>
      <trkpt lat="50.1277" lon="3.60673">
        <ele>153.95</ele>
        <time>2016-04-10T08:51:56Z</time>
      </trkpt>
      <trkpt lat="50.12767" lon="3.60657">
        <ele>154.91</ele>
        <time>2016-04-10T08:52:00Z</time>
      </trkpt>
      <trkpt lat="50.12752" lon="3.60624">
        <ele>156.83</ele>
        <time>2016-04-10T08:52:14Z</time>
      </trkpt>
      <trkpt lat="50.12743" lon="3.6061">
        <ele>157.31</ele>
        <time>2016-04-10T08:52:22Z</time>
      </trkpt>
      <trkpt lat="50.12728" lon="3.60587">
        <ele>158.27</ele>
        <time>2016-04-10T08:52:36Z</time>
      </trkpt>
      <trkpt lat="50.12718" lon="3.60582">
        <ele>158.27</ele>
        <time>2016-04-10T08:52:43Z</time>
      </trkpt>
      <trkpt lat="50.12711" lon="3.60575">
        <ele>158.75</ele>
        <time>2016-04-10T08:52:47Z</time>
      </trkpt>
      <trkpt lat="50.12706" lon="3.60572">
        <ele>158.75</ele>
        <time>2016-04-10T08:52:50Z</time>
      </trkpt>
      <trkpt lat="50.12703" lon="3.60538">
        <ele>159.72</ele>
        <time>2016-04-10T08:53:01Z</time>
      </trkpt>
      <trkpt lat="50.12701" lon="3.60532">
        <ele>159.72</ele>
        <time>2016-04-10T08:53:03Z</time>
      </trkpt>
      <trkpt lat="50.12686" lon="3.60501">
        <ele>160.2</ele>
        <time>2016-04-10T08:53:16Z</time>
      </trkpt>
      <trkpt lat="50.1268" lon="3.60496">
        <ele>160.68</ele>
        <time>2016-04-10T08:53:28Z</time>
      </trkpt>
      <trkpt lat="50.12663" lon="3.60468">
        <ele>160.68</ele>
        <time>2016-04-10T08:53:41Z</time>
      </trkpt>
      <trkpt lat="50.12647" lon="3.60437">
        <ele>161.16</ele>
        <time>2016-04-10T08:53:52Z</time>
      </trkpt>
      <trkpt lat="50.12628" lon="3.6041">
        <ele>161.16</ele>
        <time>2016-04-10T08:54:03Z</time>
      </trkpt>
      <trkpt lat="50.12607" lon="3.60376">
        <ele>161.64</ele>
        <time>2016-04-10T08:54:16Z</time>
      </trkpt>
      <trkpt lat="50.126" lon="3.6036">
        <ele>161.64</ele>
        <time>2016-04-10T08:54:21Z</time>
      </trkpt>
      <trkpt lat="50.12603" lon="3.60309">
        <ele>161.16</ele>
        <time>2016-04-10T08:54:36Z</time>
      </trkpt>
      <trkpt lat="50.12607" lon="3.60262">
        <ele>161.64</ele>
        <time>2016-04-10T08:54:48Z</time>
      </trkpt>
      <trkpt lat="50.12612" lon="3.60218">
        <ele>159.72</ele>
        <time>2016-04-10T08:54:59Z</time>
      </trkpt>
      <trkpt lat="50.12614" lon="3.60202">
        <ele>159.24</ele>
        <time>2016-04-10T08:55:05Z</time>
      </trkpt>
      <trkpt lat="50.1262" lon="3.60175">
        <ele>158.75</ele>
        <time>2016-04-10T08:55:16Z</time>
      </trkpt>
      <trkpt lat="50.12629" lon="3.6015">
        <ele>158.75</ele>
        <time>2016-04-10T08:55:23Z</time>
      </trkpt>
      <trkpt lat="50.12639" lon="3.6013">
        <ele>158.75</ele>
        <time>2016-04-10T08:55:32Z</time>
      </trkpt>
      <trkpt lat="50.12639" lon="3.60128">
        <ele>158.75</ele>
        <time>2016-04-10T08:55:33Z</time>
      </trkpt>
      <trkpt lat="50.12641" lon="3.60121">
        <ele>158.75</ele>
        <time>2016-04-10T08:55:37Z</time>
      </trkpt>
      <trkpt lat="50.12643" lon="3.6011">
        <ele>158.75</ele>
        <time>2016-04-10T08:55:41Z</time>
      </trkpt>
      <trkpt lat="50.1263" lon="3.60072">
        <ele>157.79</ele>
        <time>2016-04-10T08:55:52Z</time>
      </trkpt>
      <trkpt lat="50.12617" lon="3.60073">
        <ele>157.31</ele>
        <time>2016-04-10T08:55:57Z</time>
      </trkpt>
      <trkpt lat="50.12613" lon="3.60077">
        <ele>157.31</ele>
        <time>2016-04-10T08:56:00Z</time>
      </trkpt>
      <trkpt lat="50.12606" lon="3.60085">
        <ele>157.31</ele>
        <time>2016-04-10T08:56:05Z</time>
      </trkpt>
      <trkpt lat="50.12598" lon="3.60093">
        <ele>157.31</ele>
        <time>2016-04-10T08:56:10Z</time>
      </trkpt>
      <trkpt lat="50.12586" lon="3.60098">
        <ele>157.31</ele>
        <time>2016-04-10T08:56:17Z</time>
      </trkpt>
      <trkpt lat="50.12556" lon="3.60088">
        <ele>156.83</ele>
        <time>2016-04-10T08:56:29Z</time>
      </trkpt>
      <trkpt lat="50.12527" lon="3.6007">
        <ele>156.83</ele>
        <time>2016-04-10T08:56:40Z</time>
      </trkpt>
      <trkpt lat="50.12517" lon="3.60066">
        <ele>155.87</ele>
        <time>2016-04-10T08:56:43Z</time>
      </trkpt>
      <trkpt lat="50.12504" lon="3.60077">
        <ele>155.87</ele>
        <time>2016-04-10T08:56:50Z</time>
      </trkpt>
      <trkpt lat="50.12501" lon="3.6008">
        <ele>155.87</ele>
        <time>2016-04-10T08:56:52Z</time>
      </trkpt>
      <trkpt lat="50.12492" lon="3.60089">
        <ele>155.87</ele>
        <time>2016-04-10T08:56:57Z</time>
      </trkpt>
      <trkpt lat="50.12483" lon="3.60097">
        <ele>155.87</ele>
        <time>2016-04-10T08:57:02Z</time>
      </trkpt>
      <trkpt lat="50.12468" lon="3.60111">
        <ele>155.87</ele>
        <time>2016-04-10T08:57:14Z</time>
      </trkpt>
      <trkpt lat="50.12451" lon="3.60128">
        <ele>155.87</ele>
        <time>2016-04-10T08:57:24Z</time>
      </trkpt>
      <trkpt lat="50.12432" lon="3.60146">
        <ele>155.87</ele>
        <time>2016-04-10T08:57:35Z</time>
      </trkpt>
      <trkpt lat="50.12431" lon="3.60147">
        <ele>155.87</ele>
        <time>2016-04-10T08:57:36Z</time>
      </trkpt>
      <trkpt lat="50.12425" lon="3.60152">
        <ele>155.87</ele>
        <time>2016-04-10T08:57:40Z</time>
      </trkpt>
      <trkpt lat="50.12417" lon="3.60162">
        <ele>157.79</ele>
        <time>2016-04-10T08:57:47Z</time>
      </trkpt>
      <trkpt lat="50.12406" lon="3.60158">
        <ele>157.79</ele>
        <time>2016-04-10T08:57:54Z</time>
      </trkpt>
      <trkpt lat="50.12397" lon="3.60142">
        <ele>156.35</ele>
        <time>2016-04-10T08:58:00Z</time>
      </trkpt>
      <trkpt lat="50.12377" lon="3.60105">
        <ele>154.91</ele>
        <time>2016-04-10T08:58:10Z</time>
      </trkpt>
      <trkpt lat="50.12353" lon="3.60066">
        <ele>154.91</ele>
        <time>2016-04-10T08:58:22Z</time>
      </trkpt>
      <trkpt lat="50.12341" lon="3.60045">
        <ele>156.35</ele>
        <time>2016-04-10T08:58:28Z</time>
      </trkpt>
      <trkpt lat="50.12324" lon="3.60011">
        <ele>157.79</ele>
        <time>2016-04-10T08:58:38Z</time>
      </trkpt>
      <trkpt lat="50.12296" lon="3.59958">
        <ele>158.75</ele>
        <time>2016-04-10T08:58:53Z</time>
      </trkpt>
      <trkpt lat="50.12267" lon="3.59899">
        <ele>159.72</ele>
        <time>2016-04-10T08:59:06Z</time>
      </trkpt>
      <trkpt lat="50.12243" lon="3.59852">
        <ele>160.2</ele>
        <time>2016-04-10T08:59:17Z</time>
      </trkpt>
      <trkpt lat="50.12225" lon="3.59814">
        <ele>160.2</ele>
        <time>2016-04-10T08:59:27Z</time>
      </trkpt>
      <trkpt lat="50.12201" lon="3.59765">
        <ele>159.72</ele>
        <time>2016-04-10T08:59:40Z</time>
      </trkpt>
      <trkpt lat="50.12178" lon="3.59716">
        <ele>160.2</ele>
        <time>2016-04-10T08:59:53Z</time>
      </trkpt>
      <trkpt lat="50.12159" lon="3.59682">
        <ele>160.2</ele>
        <time>2016-04-10T09:00:03Z</time>
      </trkpt>
      <trkpt lat="50.12147" lon="3.59655">
        <ele>160.2</ele>
        <time>2016-04-10T09:00:11Z</time>
      </trkpt>
      <trkpt lat="50.12143" lon="3.59646">
        <ele>160.2</ele>
        <time>2016-04-10T09:00:16Z</time>
      </trkpt>
      <trkpt lat="50.12135" lon="3.59628">
        <ele>160.2</ele>
        <time>2016-04-10T09:00:23Z</time>
      </trkpt>
      <trkpt lat="50.12114" lon="3.59585">
        <ele>160.2</ele>
        <time>2016-04-10T09:00:37Z</time>
      </trkpt>
      <trkpt lat="50.12095" lon="3.59543">
        <ele>160.2</ele>
        <time>2016-04-10T09:00:50Z</time>
      </trkpt>
      <trkpt lat="50.12073" lon="3.59502">
        <ele>158.75</ele>
        <time>2016-04-10T09:01:01Z</time>
      </trkpt>
      <trkpt lat="50.12041" lon="3.59469">
        <ele>157.31</ele>
        <time>2016-04-10T09:01:12Z</time>
      </trkpt>
      <trkpt lat="50.1201" lon="3.59449">
        <ele>155.39</ele>
        <time>2016-04-10T09:01:22Z</time>
      </trkpt>
      <trkpt lat="50.11974" lon="3.59413">
        <ele>154.43</ele>
        <time>2016-04-10T09:01:33Z</time>
      </trkpt>
      <trkpt lat="50.11975" lon="3.59406">
        <ele>153.95</ele>
        <time>2016-04-10T09:01:34Z</time>
      </trkpt>
      <trkpt lat="50.11976" lon="3.59401">
        <ele>153.95</ele>
        <time>2016-04-10T09:01:35Z</time>
      </trkpt>
      <trkpt lat="50.11979" lon="3.59396">
        <ele>153.47</ele>
        <time>2016-04-10T09:01:36Z</time>
      </trkpt>
      <trkpt lat="50.11982" lon="3.59393">
        <ele>153.47</ele>
        <time>2016-04-10T09:01:37Z</time>
      </trkpt>
      <trkpt lat="50.11985" lon="3.5939">
        <ele>153.47</ele>
        <time>2016-04-10T09:01:38Z</time>
      </trkpt>
      <trkpt lat="50.11988" lon="3.59386">
        <ele>153.47</ele>
        <time>2016-04-10T09:01:39Z</time>
      </trkpt>
      <trkpt lat="50.1202" lon="3.59358">
        <ele>154.91</ele>
        <time>2016-04-10T09:01:50Z</time>
      </trkpt>
      <trkpt lat="50.12066" lon="3.59318">
        <ele>156.35</ele>
        <time>2016-04-10T09:02:05Z</time>
      </trkpt>
      <trkpt lat="50.12115" lon="3.59271">
        <ele>157.79</ele>
        <time>2016-04-10T09:02:21Z</time>
      </trkpt>
      <trkpt lat="50.12172" lon="3.5921">
        <ele>158.75</ele>
        <time>2016-04-10T09:02:41Z</time>
      </trkpt>
      <trkpt lat="50.12229" lon="3.59124">
        <ele>156.83</ele>
        <time>2016-04-10T09:02:58Z</time>
      </trkpt>
      <trkpt lat="50.12232" lon="3.59118">
        <ele>156.83</ele>
        <time>2016-04-10T09:02:59Z</time>
      </trkpt>
      <trkpt lat="50.12239" lon="3.59108">
        <ele>156.35</ele>
        <time>2016-04-10T09:03:01Z</time>
      </trkpt>
      <trkpt lat="50.12242" lon="3.591">
        <ele>156.35</ele>
        <time>2016-04-10T09:03:02Z</time>
      </trkpt>
      <trkpt lat="50.12242" lon="3.59092">
        <ele>156.35</ele>
        <time>2016-04-10T09:03:03Z</time>
      </trkpt>
      <trkpt lat="50.12242" lon="3.59086">
        <ele>156.35</ele>
        <time>2016-04-10T09:03:04Z</time>
      </trkpt>
      <trkpt lat="50.12241" lon="3.59078">
        <ele>155.87</ele>
        <time>2016-04-10T09:03:05Z</time>
      </trkpt>
      <trkpt lat="50.12228" lon="3.58982">
        <ele>154.43</ele>
        <time>2016-04-10T09:03:18Z</time>
      </trkpt>
      <trkpt lat="50.12227" lon="3.58975">
        <ele>154.43</ele>
        <time>2016-04-10T09:03:19Z</time>
      </trkpt>
      <trkpt lat="50.12225" lon="3.58966">
        <ele>153.95</ele>
        <time>2016-04-10T09:03:20Z</time>
      </trkpt>
      <trkpt lat="50.12213" lon="3.58881">
        <ele>152.03</ele>
        <time>2016-04-10T09:03:29Z</time>
      </trkpt>
      <trkpt lat="50.12171" lon="3.58719">
        <ele>148.66</ele>
        <time>2016-04-10T09:03:44Z</time>
      </trkpt>
      <trkpt lat="50.1213" lon="3.58576">
        <ele>147.22</ele>
        <time>2016-04-10T09:03:58Z</time>
      </trkpt>
      <trkpt lat="50.12094" lon="3.58449">
        <ele>146.26</ele>
        <time>2016-04-10T09:04:13Z</time>
      </trkpt>
      <trkpt lat="50.1205" lon="3.58293">
        <ele>144.34</ele>
        <time>2016-04-10T09:04:31Z</time>
      </trkpt>
      <trkpt lat="50.11999" lon="3.58106">
        <ele>142.89</ele>
        <time>2016-04-10T09:04:49Z</time>
      </trkpt>
      <trkpt lat="50.11953" lon="3.57955">
        <ele>141.45</ele>
        <time>2016-04-10T09:05:03Z</time>
      </trkpt>
      <trkpt lat="50.119" lon="3.57809">
        <ele>139.53</ele>
        <time>2016-04-10T09:05:17Z</time>
      </trkpt>
      <trkpt lat="50.11862" lon="3.57686">
        <ele>136.16</ele>
        <time>2016-04-10T09:05:27Z</time>
      </trkpt>
      <trkpt lat="50.1182" lon="3.57558">
        <ele>135.2</ele>
        <time>2016-04-10T09:05:38Z</time>
      </trkpt>
      <trkpt lat="50.11767" lon="3.57485">
        <ele>132.32</ele>
        <time>2016-04-10T09:05:48Z</time>
      </trkpt>
      <trkpt lat="50.11763" lon="3.5748">
        <ele>132.32</ele>
        <time>2016-04-10T09:05:49Z</time>
      </trkpt>
      <trkpt lat="50.11761" lon="3.57474">
        <ele>131.84</ele>
        <time>2016-04-10T09:05:50Z</time>
      </trkpt>
      <trkpt lat="50.1176" lon="3.57467">
        <ele>131.84</ele>
        <time>2016-04-10T09:05:51Z</time>
      </trkpt>
      <trkpt lat="50.11763" lon="3.57453">
        <ele>131.84</ele>
        <time>2016-04-10T09:05:53Z</time>
      </trkpt>
      <trkpt lat="50.11792" lon="3.57333">
        <ele>130.4</ele>
        <time>2016-04-10T09:06:07Z</time>
      </trkpt>
      <trkpt lat="50.11817" lon="3.57194">
        <ele>127.51</ele>
        <time>2016-04-10T09:06:20Z</time>
      </trkpt>
      <trkpt lat="50.1186" lon="3.57028">
        <ele>123.67</ele>
        <time>2016-04-10T09:06:36Z</time>
      </trkpt>
      <trkpt lat="50.11883" lon="3.56947">
        <ele>122.22</ele>
        <time>2016-04-10T09:06:43Z</time>
      </trkpt>
      <trkpt lat="50.11887" lon="3.56936">
        <ele>121.74</ele>
        <time>2016-04-10T09:06:44Z</time>
      </trkpt>
      <trkpt lat="50.11891" lon="3.56925">
        <ele>121.74</ele>
        <time>2016-04-10T09:06:45Z</time>
      </trkpt>
      <trkpt lat="50.11943" lon="3.5679">
        <ele>118.38</ele>
        <time>2016-04-10T09:06:58Z</time>
      </trkpt>
      <trkpt lat="50.11994" lon="3.56666">
        <ele>115.5</ele>
        <time>2016-04-10T09:07:11Z</time>
      </trkpt>
      <trkpt lat="50.12039" lon="3.56547">
        <ele>112.13</ele>
        <time>2016-04-10T09:07:22Z</time>
      </trkpt>
      <trkpt lat="50.1207" lon="3.56484">
        <ele>109.73</ele>
        <time>2016-04-10T09:07:28Z</time>
      </trkpt>
      <trkpt lat="50.12087" lon="3.56434">
        <ele>106.84</ele>
        <time>2016-04-10T09:07:32Z</time>
      </trkpt>
      <trkpt lat="50.12107" lon="3.56349">
        <ele>102.52</ele>
        <time>2016-04-10T09:07:38Z</time>
      </trkpt>
      <trkpt lat="50.12114" lon="3.56321">
        <ele>102.04</ele>
        <time>2016-04-10T09:07:40Z</time>
      </trkpt>
      <trkpt lat="50.12126" lon="3.56278">
        <ele>99.63</ele>
        <time>2016-04-10T09:07:43Z</time>
      </trkpt>
      <trkpt lat="50.12136" lon="3.56249">
        <ele>98.67</ele>
        <time>2016-04-10T09:07:45Z</time>
      </trkpt>
      <trkpt lat="50.12166" lon="3.56083">
        <ele>96.27</ele>
        <time>2016-04-10T09:07:55Z</time>
      </trkpt>
      <trkpt lat="50.1218" lon="3.5595">
        <ele>97.71</ele>
        <time>2016-04-10T09:08:05Z</time>
      </trkpt>
      <trkpt lat="50.12179" lon="3.55834">
        <ele>97.71</ele>
        <time>2016-04-10T09:08:16Z</time>
      </trkpt>
      <trkpt lat="50.12181" lon="3.55824">
        <ele>97.71</ele>
        <time>2016-04-10T09:08:17Z</time>
      </trkpt>
      <trkpt lat="50.12193" lon="3.5576">
        <ele>97.71</ele>
        <time>2016-04-10T09:08:24Z</time>
      </trkpt>
      <trkpt lat="50.12194" lon="3.5575">
        <ele>97.71</ele>
        <time>2016-04-10T09:08:25Z</time>
      </trkpt>
      <trkpt lat="50.12194" lon="3.55741">
        <ele>97.71</ele>
        <time>2016-04-10T09:08:26Z</time>
      </trkpt>
      <trkpt lat="50.12193" lon="3.55732">
        <ele>97.71</ele>
        <time>2016-04-10T09:08:27Z</time>
      </trkpt>
      <trkpt lat="50.12191" lon="3.55724">
        <ele>97.71</ele>
        <time>2016-04-10T09:08:28Z</time>
      </trkpt>
      <trkpt lat="50.12188" lon="3.55701">
        <ele>98.19</ele>
        <time>2016-04-10T09:08:31Z</time>
      </trkpt>
      <trkpt lat="50.12177" lon="3.55627">
        <ele>98.19</ele>
        <time>2016-04-10T09:08:40Z</time>
      </trkpt>
      <trkpt lat="50.12177" lon="3.5562">
        <ele>98.19</ele>
        <time>2016-04-10T09:08:41Z</time>
      </trkpt>
      <trkpt lat="50.12176" lon="3.55613">
        <ele>98.19</ele>
        <time>2016-04-10T09:08:42Z</time>
      </trkpt>
      <trkpt lat="50.12174" lon="3.55607">
        <ele>98.19</ele>
        <time>2016-04-10T09:08:43Z</time>
      </trkpt>
      <trkpt lat="50.12173" lon="3.55601">
        <ele>98.19</ele>
        <time>2016-04-10T09:08:44Z</time>
      </trkpt>
      <trkpt lat="50.12173" lon="3.55595">
        <ele>98.19</ele>
        <time>2016-04-10T09:08:45Z</time>
      </trkpt>
      <trkpt lat="50.12172" lon="3.55589">
        <ele>98.19</ele>
        <time>2016-04-10T09:08:46Z</time>
      </trkpt>
      <trkpt lat="50.12172" lon="3.55583">
        <ele>98.19</ele>
        <time>2016-04-10T09:08:47Z</time>
      </trkpt>
      <trkpt lat="50.12171" lon="3.55571">
        <ele>97.23</ele>
        <time>2016-04-10T09:08:49Z</time>
      </trkpt>
      <trkpt lat="50.1217" lon="3.55565">
        <ele>97.23</ele>
        <time>2016-04-10T09:08:50Z</time>
      </trkpt>
      <trkpt lat="50.12145" lon="3.5545">
        <ele>94.83</ele>
        <time>2016-04-10T09:09:05Z</time>
      </trkpt>
      <trkpt lat="50.12141" lon="3.55425">
        <ele>95.31</ele>
        <time>2016-04-10T09:09:08Z</time>
      </trkpt>
      <trkpt lat="50.12141" lon="3.55417">
        <ele>95.31</ele>
        <time>2016-04-10T09:09:09Z</time>
      </trkpt>
      <trkpt lat="50.12142" lon="3.55409">
        <ele>95.31</ele>
        <time>2016-04-10T09:09:10Z</time>
      </trkpt>
      <trkpt lat="50.12143" lon="3.55401">
        <ele>95.31</ele>
        <time>2016-04-10T09:09:11Z</time>
      </trkpt>
      <trkpt lat="50.12143" lon="3.55392">
        <ele>95.31</ele>
        <time>2016-04-10T09:09:12Z</time>
      </trkpt>
      <trkpt lat="50.12134" lon="3.55249">
        <ele>95.31</ele>
        <time>2016-04-10T09:09:29Z</time>
      </trkpt>
      <trkpt lat="50.12102" lon="3.55111">
        <ele>96.75</ele>
        <time>2016-04-10T09:09:46Z</time>
      </trkpt>
      <trkpt lat="50.12074" lon="3.54978">
        <ele>95.31</ele>
        <time>2016-04-10T09:10:02Z</time>
      </trkpt>
      <trkpt lat="50.12046" lon="3.54867">
        <ele>93.87</ele>
        <time>2016-04-10T09:10:15Z</time>
      </trkpt>
      <trkpt lat="50.12016" lon="3.54776">
        <ele>92.9</ele>
        <time>2016-04-10T09:10:26Z</time>
      </trkpt>
      <trkpt lat="50.12011" lon="3.54769">
        <ele>92.42</ele>
        <time>2016-04-10T09:10:27Z</time>
      </trkpt>
      <trkpt lat="50.12006" lon="3.54762">
        <ele>92.42</ele>
        <time>2016-04-10T09:10:28Z</time>
      </trkpt>
      <trkpt lat="50.11951" lon="3.54682">
        <ele>90.02</ele>
        <time>2016-04-10T09:10:39Z</time>
      </trkpt>
      <trkpt lat="50.11932" lon="3.54632">
        <ele>89.54</ele>
        <time>2016-04-10T09:10:45Z</time>
      </trkpt>
      <trkpt lat="50.1193" lon="3.54623">
        <ele>89.54</ele>
        <time>2016-04-10T09:10:46Z</time>
      </trkpt>
      <trkpt lat="50.11929" lon="3.54614">
        <ele>89.54</ele>
        <time>2016-04-10T09:10:47Z</time>
      </trkpt>
      <trkpt lat="50.11929" lon="3.54605">
        <ele>89.54</ele>
        <time>2016-04-10T09:10:48Z</time>
      </trkpt>
      <trkpt lat="50.11929" lon="3.54596">
        <ele>89.54</ele>
        <time>2016-04-10T09:10:49Z</time>
      </trkpt>
      <trkpt lat="50.11929" lon="3.54587">
        <ele>89.54</ele>
        <time>2016-04-10T09:10:50Z</time>
      </trkpt>
      <trkpt lat="50.1193" lon="3.54579">
        <ele>89.54</ele>
        <time>2016-04-10T09:10:51Z</time>
      </trkpt>
      <trkpt lat="50.11931" lon="3.5457">
        <ele>89.54</ele>
        <time>2016-04-10T09:10:52Z</time>
      </trkpt>
      <trkpt lat="50.11936" lon="3.54486">
        <ele>90.98</ele>
        <time>2016-04-10T09:11:03Z</time>
      </trkpt>
      <trkpt lat="50.11939" lon="3.54423">
        <ele>90.98</ele>
        <time>2016-04-10T09:11:13Z</time>
      </trkpt>
      <trkpt lat="50.11941" lon="3.54416">
        <ele>90.98</ele>
        <time>2016-04-10T09:11:14Z</time>
      </trkpt>
      <trkpt lat="50.11943" lon="3.5441">
        <ele>89.54</ele>
        <time>2016-04-10T09:11:15Z</time>
      </trkpt>
      <trkpt lat="50.11947" lon="3.54405">
        <ele>89.54</ele>
        <time>2016-04-10T09:11:16Z</time>
      </trkpt>
      <trkpt lat="50.11951" lon="3.54401">
        <ele>89.54</ele>
        <time>2016-04-10T09:11:17Z</time>
      </trkpt>
      <trkpt lat="50.11955" lon="3.54398">
        <ele>89.06</ele>
        <time>2016-04-10T09:11:18Z</time>
      </trkpt>
      <trkpt lat="50.1196" lon="3.54395">
        <ele>89.06</ele>
        <time>2016-04-10T09:11:19Z</time>
      </trkpt>
      <trkpt lat="50.11965" lon="3.54392">
        <ele>89.06</ele>
        <time>2016-04-10T09:11:20Z</time>
      </trkpt>
      <trkpt lat="50.1197" lon="3.5439">
        <ele>89.06</ele>
        <time>2016-04-10T09:11:21Z</time>
      </trkpt>
      <trkpt lat="50.11975" lon="3.54388">
        <ele>89.06</ele>
        <time>2016-04-10T09:11:22Z</time>
      </trkpt>
      <trkpt lat="50.1198" lon="3.54385">
        <ele>89.06</ele>
        <time>2016-04-10T09:11:23Z</time>
      </trkpt>
      <trkpt lat="50.12034" lon="3.54351">
        <ele>87.62</ele>
        <time>2016-04-10T09:11:34Z</time>
      </trkpt>
      <trkpt lat="50.12038" lon="3.54345">
        <ele>87.62</ele>
        <time>2016-04-10T09:11:35Z</time>
      </trkpt>
      <trkpt lat="50.1204" lon="3.54339">
        <ele>87.62</ele>
        <time>2016-04-10T09:11:36Z</time>
      </trkpt>
      <trkpt lat="50.12043" lon="3.54332">
        <ele>87.62</ele>
        <time>2016-04-10T09:11:37Z</time>
      </trkpt>
      <trkpt lat="50.12045" lon="3.54325">
        <ele>87.62</ele>
        <time>2016-04-10T09:11:38Z</time>
      </trkpt>
      <trkpt lat="50.12047" lon="3.54318">
        <ele>87.62</ele>
        <time>2016-04-10T09:11:39Z</time>
      </trkpt>
      <trkpt lat="50.12048" lon="3.54311">
        <ele>87.62</ele>
        <time>2016-04-10T09:11:40Z</time>
      </trkpt>
      <trkpt lat="50.12049" lon="3.54303">
        <ele>87.62</ele>
        <time>2016-04-10T09:11:41Z</time>
      </trkpt>
      <trkpt lat="50.12049" lon="3.54296">
        <ele>87.62</ele>
        <time>2016-04-10T09:11:42Z</time>
      </trkpt>
      <trkpt lat="50.1205" lon="3.54274">
        <ele>87.62</ele>
        <time>2016-04-10T09:11:45Z</time>
      </trkpt>
      <trkpt lat="50.12049" lon="3.54267">
        <ele>87.62</ele>
        <time>2016-04-10T09:11:46Z</time>
      </trkpt>
      <trkpt lat="50.12032" lon="3.54225">
        <ele>87.62</ele>
        <time>2016-04-10T09:11:56Z</time>
      </trkpt>
      <trkpt lat="50.12021" lon="3.54218">
        <ele>87.62</ele>
        <time>2016-04-10T09:11:59Z</time>
      </trkpt>
      <trkpt lat="50.12017" lon="3.54215">
        <ele>87.62</ele>
        <time>2016-04-10T09:12:00Z</time>
      </trkpt>
      <trkpt lat="50.12003" lon="3.54203">
        <ele>87.62</ele>
        <time>2016-04-10T09:12:04Z</time>
      </trkpt>
      <trkpt lat="50.11999" lon="3.54198">
        <ele>87.62</ele>
        <time>2016-04-10T09:12:05Z</time>
      </trkpt>
      <trkpt lat="50.11948" lon="3.54112">
        <ele>87.14</ele>
        <time>2016-04-10T09:12:20Z</time>
      </trkpt>
      <trkpt lat="50.11937" lon="3.54095">
        <ele>87.14</ele>
        <time>2016-04-10T09:12:23Z</time>
      </trkpt>
      <trkpt lat="50.11933" lon="3.54091">
        <ele>87.14</ele>
        <time>2016-04-10T09:12:24Z</time>
      </trkpt>
      <trkpt lat="50.11929" lon="3.54088">
        <ele>87.14</ele>
        <time>2016-04-10T09:12:25Z</time>
      </trkpt>
      <trkpt lat="50.11925" lon="3.54087">
        <ele>87.14</ele>
        <time>2016-04-10T09:12:26Z</time>
      </trkpt>
      <trkpt lat="50.1192" lon="3.54086">
        <ele>87.14</ele>
        <time>2016-04-10T09:12:27Z</time>
      </trkpt>
      <trkpt lat="50.11916" lon="3.54087">
        <ele>87.14</ele>
        <time>2016-04-10T09:12:28Z</time>
      </trkpt>
      <trkpt lat="50.11912" lon="3.54088">
        <ele>87.14</ele>
        <time>2016-04-10T09:12:29Z</time>
      </trkpt>
      <trkpt lat="50.11908" lon="3.5409">
        <ele>87.14</ele>
        <time>2016-04-10T09:12:30Z</time>
      </trkpt>
      <trkpt lat="50.11904" lon="3.54091">
        <ele>87.14</ele>
        <time>2016-04-10T09:12:31Z</time>
      </trkpt>
      <trkpt lat="50.1189" lon="3.54096">
        <ele>88.58</ele>
        <time>2016-04-10T09:12:35Z</time>
      </trkpt>
      <trkpt lat="50.11839" lon="3.54115">
        <ele>90.02</ele>
        <time>2016-04-10T09:12:49Z</time>
      </trkpt>
      <trkpt lat="50.11775" lon="3.54134">
        <ele>91.94</ele>
        <time>2016-04-10T09:13:02Z</time>
      </trkpt>
      <trkpt lat="50.11758" lon="3.54133">
        <ele>92.42</ele>
        <time>2016-04-10T09:13:06Z</time>
      </trkpt>
      <trkpt lat="50.11756" lon="3.54128">
        <ele>92.9</ele>
        <time>2016-04-10T09:13:07Z</time>
      </trkpt>
      <trkpt lat="50.1174" lon="3.5407">
        <ele>95.31</ele>
        <time>2016-04-10T09:13:20Z</time>
      </trkpt>
      <trkpt lat="50.11729" lon="3.54037">
        <ele>96.75</ele>
        <time>2016-04-10T09:13:32Z</time>
      </trkpt>
      <trkpt lat="50.1173" lon="3.54034">
        <ele>96.75</ele>
        <time>2016-04-10T09:13:33Z</time>
      </trkpt>
      <trkpt lat="50.11731" lon="3.54032">
        <ele>96.75</ele>
        <time>2016-04-10T09:13:34Z</time>
      </trkpt>
      <trkpt lat="50.11746" lon="3.54015">
        <ele>96.75</ele>
        <time>2016-04-10T09:13:46Z</time>
      </trkpt>
      <trkpt lat="50.1175" lon="3.54013">
        <ele>96.75</ele>
        <time>2016-04-10T09:13:49Z</time>
      </trkpt>
      <trkpt lat="50.11752" lon="3.54014">
        <ele>96.75</ele>
        <time>2016-04-10T09:13:51Z</time>
      </trkpt>
      <trkpt lat="50.11755" lon="3.54015">
        <ele>96.75</ele>
        <time>2016-04-10T09:13:54Z</time>
      </trkpt>
      <trkpt lat="50.11758" lon="3.54017">
        <ele>96.75</ele>
        <time>2016-04-10T09:13:57Z</time>
      </trkpt>
      <trkpt lat="50.1176" lon="3.54026">
        <ele>96.75</ele>
        <time>2016-04-10T09:14:10Z</time>
      </trkpt>
      <trkpt lat="50.11758" lon="3.54027">
        <ele>96.75</ele>
        <time>2016-04-10T09:14:28Z</time>
      </trkpt>
    </trkseg>
  </trk>
</gpx>